<?xml version="1.0" encoding="UTF-8" standalone="no" ?>
<gpx xmlns="http://www.topografix.com/GPX/1/1" xmlns:xsi="http://www.w3.org/2001/XMLSchema-instance" xsi:schemaLocation="http://www.topografix.com/GPX/1/1 http://www.topografix.com/GPX/1/1/gpx.xsd" version="1.1" creator="VisuGPX - https://www.visugpx.com">
  <metadata>
    <name>Jeu des milles bornes: recherche 3-9-10 Mont Cindre</name>
    <desc><![CDATA[Fait le 24/05/14]]></desc>
  </metadata>
  <trk>
    <name><![CDATA[2014-05-24T08:38:53Z]]></name>
    <trkseg>
      <trkpt lat="45.83103" lon="4.82529">
        <ele>352.2</ele>
        <time>2014-05-24T08:38:53Z</time>
      </trkpt>
      <trkpt lat="45.83103" lon="4.82528">
        <ele>340.6</ele>
        <time>2014-05-24T08:38:58Z</time>
      </trkpt>
      <trkpt lat="45.83106" lon="4.82527">
        <ele>342</ele>
        <time>2014-05-24T08:39:03Z</time>
      </trkpt>
      <trkpt lat="45.83106" lon="4.82523">
        <ele>345.8</ele>
        <time>2014-05-24T08:39:21Z</time>
      </trkpt>
      <trkpt lat="45.83105" lon="4.82521">
        <ele>346.6</ele>
        <time>2014-05-24T08:39:26Z</time>
      </trkpt>
      <trkpt lat="45.83107" lon="4.82536">
        <ele>348.4</ele>
        <time>2014-05-24T08:39:52Z</time>
      </trkpt>
      <trkpt lat="45.83109" lon="4.82539">
        <ele>348</ele>
        <time>2014-05-24T08:39:59Z</time>
      </trkpt>
      <trkpt lat="45.83105" lon="4.82544">
        <ele>347.2</ele>
        <time>2014-05-24T08:40:07Z</time>
      </trkpt>
      <trkpt lat="45.83105" lon="4.82545">
        <ele>347</ele>
        <time>2014-05-24T08:40:08Z</time>
      </trkpt>
      <trkpt lat="45.83105" lon="4.82548">
        <ele>346.8</ele>
        <time>2014-05-24T08:40:11Z</time>
      </trkpt>
      <trkpt lat="45.83103" lon="4.82549">
        <ele>346.4</ele>
        <time>2014-05-24T08:40:15Z</time>
      </trkpt>
      <trkpt lat="45.831" lon="4.82549">
        <ele>346.2</ele>
        <time>2014-05-24T08:40:17Z</time>
      </trkpt>
      <trkpt lat="45.83099" lon="4.8255">
        <ele>346.2</ele>
        <time>2014-05-24T08:40:19Z</time>
      </trkpt>
      <trkpt lat="45.83097" lon="4.82552">
        <ele>345.8</ele>
        <time>2014-05-24T08:40:23Z</time>
      </trkpt>
      <trkpt lat="45.8309" lon="4.82553">
        <ele>345</ele>
        <time>2014-05-24T08:40:30Z</time>
      </trkpt>
      <trkpt lat="45.83089" lon="4.82554">
        <ele>344.8</ele>
        <time>2014-05-24T08:40:32Z</time>
      </trkpt>
      <trkpt lat="45.83088" lon="4.82554">
        <ele>344.6</ele>
        <time>2014-05-24T08:40:36Z</time>
      </trkpt>
      <trkpt lat="45.83088" lon="4.82552">
        <ele>344.6</ele>
        <time>2014-05-24T08:40:44Z</time>
      </trkpt>
      <trkpt lat="45.83087" lon="4.82552">
        <ele>347.8</ele>
        <time>2014-05-24T08:41:00Z</time>
      </trkpt>
      <trkpt lat="45.83091" lon="4.82548">
        <ele>349.8</ele>
        <time>2014-05-24T08:41:04Z</time>
      </trkpt>
      <trkpt lat="45.83092" lon="4.82547">
        <ele>352</ele>
        <time>2014-05-24T08:41:07Z</time>
      </trkpt>
      <trkpt lat="45.83094" lon="4.82547">
        <ele>355</ele>
        <time>2014-05-24T08:41:14Z</time>
      </trkpt>
      <trkpt lat="45.83096" lon="4.82547">
        <ele>357.4</ele>
        <time>2014-05-24T08:41:21Z</time>
      </trkpt>
      <trkpt lat="45.83095" lon="4.82545">
        <ele>357.6</ele>
        <time>2014-05-24T08:41:22Z</time>
      </trkpt>
      <trkpt lat="45.83097" lon="4.82542">
        <ele>358.2</ele>
        <time>2014-05-24T08:41:25Z</time>
      </trkpt>
      <trkpt lat="45.83093" lon="4.82537">
        <ele>361.4</ele>
        <time>2014-05-24T08:41:41Z</time>
      </trkpt>
      <trkpt lat="45.83099" lon="4.82531">
        <ele>361.4</ele>
        <time>2014-05-24T08:42:01Z</time>
      </trkpt>
      <trkpt lat="45.83099" lon="4.82532">
        <ele>361.4</ele>
        <time>2014-05-24T08:42:04Z</time>
      </trkpt>
      <trkpt lat="45.83099" lon="4.82526">
        <ele>361.8</ele>
        <time>2014-05-24T08:42:12Z</time>
      </trkpt>
      <trkpt lat="45.831" lon="4.82527">
        <ele>362.2</ele>
        <time>2014-05-24T08:42:57Z</time>
      </trkpt>
      <trkpt lat="45.83102" lon="4.82528">
        <ele>361.8</ele>
        <time>2014-05-24T08:43:08Z</time>
      </trkpt>
      <trkpt lat="45.83095" lon="4.82515">
        <ele>355.4</ele>
        <time>2014-05-24T08:44:40Z</time>
      </trkpt>
      <trkpt lat="45.83092" lon="4.82512">
        <ele>350.8</ele>
        <time>2014-05-24T08:44:52Z</time>
      </trkpt>
      <trkpt lat="45.83094" lon="4.82517">
        <ele>345.4</ele>
        <time>2014-05-24T08:45:17Z</time>
      </trkpt>
      <trkpt lat="45.83094" lon="4.82516">
        <ele>344.8</ele>
        <time>2014-05-24T08:45:21Z</time>
      </trkpt>
      <trkpt lat="45.83094" lon="4.82524">
        <ele>345.4</ele>
        <time>2014-05-24T08:45:34Z</time>
      </trkpt>
      <trkpt lat="45.83095" lon="4.82526">
        <ele>346</ele>
        <time>2014-05-24T08:45:37Z</time>
      </trkpt>
      <trkpt lat="45.83099" lon="4.82531">
        <ele>349.4</ele>
        <time>2014-05-24T08:45:45Z</time>
      </trkpt>
      <trkpt lat="45.83097" lon="4.82522">
        <ele>356.6</ele>
        <time>2014-05-24T08:46:43Z</time>
      </trkpt>
      <trkpt lat="45.83095" lon="4.82519">
        <ele>356.6</ele>
        <time>2014-05-24T08:46:47Z</time>
      </trkpt>
      <trkpt lat="45.83111" lon="4.82515">
        <ele>359.4</ele>
        <time>2014-05-24T08:46:58Z</time>
      </trkpt>
      <trkpt lat="45.83115" lon="4.8252">
        <ele>362.4</ele>
        <time>2014-05-24T08:47:03Z</time>
      </trkpt>
      <trkpt lat="45.83114" lon="4.82522">
        <ele>364.4</ele>
        <time>2014-05-24T08:47:07Z</time>
      </trkpt>
      <trkpt lat="45.8311" lon="4.82522">
        <ele>365.4</ele>
        <time>2014-05-24T08:47:12Z</time>
      </trkpt>
      <trkpt lat="45.83107" lon="4.82523">
        <ele>365.8</ele>
        <time>2014-05-24T08:47:16Z</time>
      </trkpt>
      <trkpt lat="45.83107" lon="4.82522">
        <ele>366</ele>
        <time>2014-05-24T08:47:17Z</time>
      </trkpt>
      <trkpt lat="45.83106" lon="4.82524">
        <ele>365.8</ele>
        <time>2014-05-24T08:47:19Z</time>
      </trkpt>
      <trkpt lat="45.83103" lon="4.82525">
        <ele>365.6</ele>
        <time>2014-05-24T08:47:23Z</time>
      </trkpt>
      <trkpt lat="45.83098" lon="4.82523">
        <ele>365</ele>
        <time>2014-05-24T08:47:31Z</time>
      </trkpt>
      <trkpt lat="45.83096" lon="4.82524">
        <ele>364</ele>
        <time>2014-05-24T08:47:37Z</time>
      </trkpt>
      <trkpt lat="45.83098" lon="4.82528">
        <ele>362.6</ele>
        <time>2014-05-24T08:47:48Z</time>
      </trkpt>
      <trkpt lat="45.83104" lon="4.82523">
        <ele>360.6</ele>
        <time>2014-05-24T08:48:29Z</time>
      </trkpt>
      <trkpt lat="45.83099" lon="4.82526">
        <ele>362</ele>
        <time>2014-05-24T08:48:53Z</time>
      </trkpt>
      <trkpt lat="45.83092" lon="4.8253">
        <ele>361.6</ele>
        <time>2014-05-24T08:49:03Z</time>
      </trkpt>
      <trkpt lat="45.83091" lon="4.8253">
        <ele>361.4</ele>
        <time>2014-05-24T08:49:07Z</time>
      </trkpt>
      <trkpt lat="45.83098" lon="4.82529">
        <ele>361.6</ele>
        <time>2014-05-24T08:49:14Z</time>
      </trkpt>
      <trkpt lat="45.83104" lon="4.82532">
        <ele>361.6</ele>
        <time>2014-05-24T08:49:19Z</time>
      </trkpt>
      <trkpt lat="45.83107" lon="4.82533">
        <ele>361.6</ele>
        <time>2014-05-24T08:49:23Z</time>
      </trkpt>
      <trkpt lat="45.83108" lon="4.82533">
        <ele>361.4</ele>
        <time>2014-05-24T08:49:26Z</time>
      </trkpt>
      <trkpt lat="45.83109" lon="4.82534">
        <ele>361.2</ele>
        <time>2014-05-24T08:49:28Z</time>
      </trkpt>
      <trkpt lat="45.8311" lon="4.82538">
        <ele>361</ele>
        <time>2014-05-24T08:49:31Z</time>
      </trkpt>
      <trkpt lat="45.83111" lon="4.82539">
        <ele>361</ele>
        <time>2014-05-24T08:49:32Z</time>
      </trkpt>
      <trkpt lat="45.83114" lon="4.8254">
        <ele>360.6</ele>
        <time>2014-05-24T08:49:35Z</time>
      </trkpt>
      <trkpt lat="45.83116" lon="4.82539">
        <ele>360</ele>
        <time>2014-05-24T08:49:39Z</time>
      </trkpt>
      <trkpt lat="45.83119" lon="4.82541">
        <ele>359.6</ele>
        <time>2014-05-24T08:49:43Z</time>
      </trkpt>
      <trkpt lat="45.83122" lon="4.82545">
        <ele>359</ele>
        <time>2014-05-24T08:49:49Z</time>
      </trkpt>
      <trkpt lat="45.83125" lon="4.82542">
        <ele>358.2</ele>
        <time>2014-05-24T08:49:56Z</time>
      </trkpt>
      <trkpt lat="45.83126" lon="4.8254">
        <ele>358</ele>
        <time>2014-05-24T08:49:58Z</time>
      </trkpt>
      <trkpt lat="45.83129" lon="4.82541">
        <ele>357.6</ele>
        <time>2014-05-24T08:50:00Z</time>
      </trkpt>
      <trkpt lat="45.83128" lon="4.82545">
        <ele>357.2</ele>
        <time>2014-05-24T08:50:04Z</time>
      </trkpt>
      <trkpt lat="45.83127" lon="4.82546">
        <ele>357</ele>
        <time>2014-05-24T08:50:05Z</time>
      </trkpt>
      <trkpt lat="45.83125" lon="4.82546">
        <ele>356.4</ele>
        <time>2014-05-24T08:50:10Z</time>
      </trkpt>
      <trkpt lat="45.83125" lon="4.82545">
        <ele>356.2</ele>
        <time>2014-05-24T08:50:11Z</time>
      </trkpt>
      <trkpt lat="45.83128" lon="4.82538">
        <ele>355.6</ele>
        <time>2014-05-24T08:50:15Z</time>
      </trkpt>
      <trkpt lat="45.83128" lon="4.82532">
        <ele>355.2</ele>
        <time>2014-05-24T08:50:18Z</time>
      </trkpt>
      <trkpt lat="45.83127" lon="4.82532">
        <ele>354.8</ele>
        <time>2014-05-24T08:50:21Z</time>
      </trkpt>
      <trkpt lat="45.83125" lon="4.8254">
        <ele>354</ele>
        <time>2014-05-24T08:50:27Z</time>
      </trkpt>
      <trkpt lat="45.83124" lon="4.82543">
        <ele>353.6</ele>
        <time>2014-05-24T08:50:29Z</time>
      </trkpt>
      <trkpt lat="45.83127" lon="4.82544">
        <ele>353</ele>
        <time>2014-05-24T08:50:34Z</time>
      </trkpt>
      <trkpt lat="45.83132" lon="4.8255">
        <ele>351</ele>
        <time>2014-05-24T08:50:50Z</time>
      </trkpt>
      <trkpt lat="45.83136" lon="4.82553">
        <ele>350</ele>
        <time>2014-05-24T08:50:57Z</time>
      </trkpt>
      <trkpt lat="45.8314" lon="4.82554">
        <ele>349.6</ele>
        <time>2014-05-24T08:51:01Z</time>
      </trkpt>
      <trkpt lat="45.83142" lon="4.82556">
        <ele>348.6</ele>
        <time>2014-05-24T08:51:09Z</time>
      </trkpt>
      <trkpt lat="45.83143" lon="4.8256">
        <ele>348</ele>
        <time>2014-05-24T08:51:13Z</time>
      </trkpt>
      <trkpt lat="45.83146" lon="4.82561">
        <ele>346.8</ele>
        <time>2014-05-24T08:51:20Z</time>
      </trkpt>
      <trkpt lat="45.83148" lon="4.82561">
        <ele>344.4</ele>
        <time>2014-05-24T08:51:32Z</time>
      </trkpt>
      <trkpt lat="45.83149" lon="4.82562">
        <ele>343</ele>
        <time>2014-05-24T08:51:39Z</time>
      </trkpt>
      <trkpt lat="45.83152" lon="4.82562">
        <ele>340.6</ele>
        <time>2014-05-24T08:51:50Z</time>
      </trkpt>
      <trkpt lat="45.83153" lon="4.82567">
        <ele>338.6</ele>
        <time>2014-05-24T08:52:07Z</time>
      </trkpt>
      <trkpt lat="45.83154" lon="4.82568">
        <ele>338.2</ele>
        <time>2014-05-24T08:52:11Z</time>
      </trkpt>
      <trkpt lat="45.83154" lon="4.82571">
        <ele>337.2</ele>
        <time>2014-05-24T08:52:21Z</time>
      </trkpt>
      <trkpt lat="45.83156" lon="4.82573">
        <ele>335.8</ele>
        <time>2014-05-24T08:52:37Z</time>
      </trkpt>
      <trkpt lat="45.83158" lon="4.82574">
        <ele>334.4</ele>
        <time>2014-05-24T08:52:48Z</time>
      </trkpt>
      <trkpt lat="45.8316" lon="4.82577">
        <ele>333.4</ele>
        <time>2014-05-24T08:52:57Z</time>
      </trkpt>
      <trkpt lat="45.83162" lon="4.82578">
        <ele>332</ele>
        <time>2014-05-24T08:53:11Z</time>
      </trkpt>
      <trkpt lat="45.83167" lon="4.82579">
        <ele>329.2</ele>
        <time>2014-05-24T08:53:42Z</time>
      </trkpt>
      <trkpt lat="45.83169" lon="4.82578">
        <ele>327.8</ele>
        <time>2014-05-24T08:54:14Z</time>
      </trkpt>
      <trkpt lat="45.8317" lon="4.82577">
        <ele>324.4</ele>
        <time>2014-05-24T08:54:59Z</time>
      </trkpt>
      <trkpt lat="45.83173" lon="4.82577">
        <ele>323.8</ele>
        <time>2014-05-24T08:55:13Z</time>
      </trkpt>
      <trkpt lat="45.83172" lon="4.82577">
        <ele>323.2</ele>
        <time>2014-05-24T08:55:21Z</time>
      </trkpt>
      <trkpt lat="45.83174" lon="4.82579">
        <ele>321.8</ele>
        <time>2014-05-24T08:55:51Z</time>
      </trkpt>
      <trkpt lat="45.83177" lon="4.82576">
        <ele>321.4</ele>
        <time>2014-05-24T08:56:26Z</time>
      </trkpt>
      <trkpt lat="45.83177" lon="4.82577">
        <ele>321.4</ele>
        <time>2014-05-24T08:56:33Z</time>
      </trkpt>
      <trkpt lat="45.83177" lon="4.8258">
        <ele>321.2</ele>
        <time>2014-05-24T08:56:38Z</time>
      </trkpt>
      <trkpt lat="45.83178" lon="4.82578">
        <ele>320.2</ele>
        <time>2014-05-24T08:56:54Z</time>
      </trkpt>
      <trkpt lat="45.83179" lon="4.8258">
        <ele>320</ele>
        <time>2014-05-24T08:56:58Z</time>
      </trkpt>
      <trkpt lat="45.83178" lon="4.82581">
        <ele>319.8</ele>
        <time>2014-05-24T08:56:59Z</time>
      </trkpt>
      <trkpt lat="45.83179" lon="4.82581">
        <ele>319</ele>
        <time>2014-05-24T08:57:09Z</time>
      </trkpt>
      <trkpt lat="45.83181" lon="4.82583">
        <ele>318.2</ele>
        <time>2014-05-24T08:57:22Z</time>
      </trkpt>
      <trkpt lat="45.83181" lon="4.82582">
        <ele>317.6</ele>
        <time>2014-05-24T08:57:30Z</time>
      </trkpt>
      <trkpt lat="45.83188" lon="4.8258">
        <ele>316.8</ele>
        <time>2014-05-24T08:57:57Z</time>
      </trkpt>
      <trkpt lat="45.83189" lon="4.82581">
        <ele>317</ele>
        <time>2014-05-24T08:58:08Z</time>
      </trkpt>
      <trkpt lat="45.83186" lon="4.82581">
        <ele>317</ele>
        <time>2014-05-24T08:58:24Z</time>
      </trkpt>
      <trkpt lat="45.83183" lon="4.8258">
        <ele>316.6</ele>
        <time>2014-05-24T08:58:43Z</time>
      </trkpt>
      <trkpt lat="45.83182" lon="4.82581">
        <ele>316.6</ele>
        <time>2014-05-24T08:58:47Z</time>
      </trkpt>
      <trkpt lat="45.83181" lon="4.82582">
        <ele>316.6</ele>
        <time>2014-05-24T08:58:52Z</time>
      </trkpt>
      <trkpt lat="45.83178" lon="4.82582">
        <ele>316.6</ele>
        <time>2014-05-24T08:59:01Z</time>
      </trkpt>
      <trkpt lat="45.83176" lon="4.8258">
        <ele>316.8</ele>
        <time>2014-05-24T08:59:09Z</time>
      </trkpt>
      <trkpt lat="45.83176" lon="4.82577">
        <ele>316.6</ele>
        <time>2014-05-24T08:59:16Z</time>
      </trkpt>
      <trkpt lat="45.83175" lon="4.82575">
        <ele>316.6</ele>
        <time>2014-05-24T08:59:24Z</time>
      </trkpt>
      <trkpt lat="45.83175" lon="4.82574">
        <ele>317</ele>
        <time>2014-05-24T08:59:41Z</time>
      </trkpt>
      <trkpt lat="45.83177" lon="4.82575">
        <ele>317.4</ele>
        <time>2014-05-24T08:59:47Z</time>
      </trkpt>
      <trkpt lat="45.83175" lon="4.8257">
        <ele>317.4</ele>
        <time>2014-05-24T09:00:03Z</time>
      </trkpt>
      <trkpt lat="45.83176" lon="4.82564">
        <ele>317.4</ele>
        <time>2014-05-24T09:00:16Z</time>
      </trkpt>
      <trkpt lat="45.83176" lon="4.82558">
        <ele>317.2</ele>
        <time>2014-05-24T09:00:22Z</time>
      </trkpt>
      <trkpt lat="45.83175" lon="4.82554">
        <ele>317.2</ele>
        <time>2014-05-24T09:00:30Z</time>
      </trkpt>
      <trkpt lat="45.83173" lon="4.82551">
        <ele>317.8</ele>
        <time>2014-05-24T09:00:36Z</time>
      </trkpt>
      <trkpt lat="45.83176" lon="4.82546">
        <ele>319</ele>
        <time>2014-05-24T09:00:46Z</time>
      </trkpt>
      <trkpt lat="45.83174" lon="4.82541">
        <ele>319.2</ele>
        <time>2014-05-24T09:00:52Z</time>
      </trkpt>
      <trkpt lat="45.83174" lon="4.82539">
        <ele>319.4</ele>
        <time>2014-05-24T09:00:54Z</time>
      </trkpt>
      <trkpt lat="45.83174" lon="4.82539">
        <ele>319.6</ele>
        <time>2014-05-24T09:00:55Z</time>
      </trkpt>
      <trkpt lat="45.83177" lon="4.82538">
        <ele>320</ele>
        <time>2014-05-24T09:00:58Z</time>
      </trkpt>
      <trkpt lat="45.8318" lon="4.82537">
        <ele>320.4</ele>
        <time>2014-05-24T09:01:02Z</time>
      </trkpt>
      <trkpt lat="45.8318" lon="4.82536">
        <ele>320.4</ele>
        <time>2014-05-24T09:01:03Z</time>
      </trkpt>
      <trkpt lat="45.83182" lon="4.82534">
        <ele>320.6</ele>
        <time>2014-05-24T09:01:06Z</time>
      </trkpt>
      <trkpt lat="45.83184" lon="4.82535">
        <ele>320.6</ele>
        <time>2014-05-24T09:01:07Z</time>
      </trkpt>
      <trkpt lat="45.8319" lon="4.82536">
        <ele>320.6</ele>
        <time>2014-05-24T09:01:12Z</time>
      </trkpt>
      <trkpt lat="45.83192" lon="4.82536">
        <ele>320.4</ele>
        <time>2014-05-24T09:01:13Z</time>
      </trkpt>
      <trkpt lat="45.83195" lon="4.82536">
        <ele>320.6</ele>
        <time>2014-05-24T09:01:16Z</time>
      </trkpt>
      <trkpt lat="45.83197" lon="4.82537">
        <ele>320.6</ele>
        <time>2014-05-24T09:01:17Z</time>
      </trkpt>
      <trkpt lat="45.832" lon="4.82537">
        <ele>320.8</ele>
        <time>2014-05-24T09:01:19Z</time>
      </trkpt>
      <trkpt lat="45.832" lon="4.82539">
        <ele>321</ele>
        <time>2014-05-24T09:01:21Z</time>
      </trkpt>
      <trkpt lat="45.832" lon="4.8254">
        <ele>320.8</ele>
        <time>2014-05-24T09:01:26Z</time>
      </trkpt>
      <trkpt lat="45.83205" lon="4.82548">
        <ele>320.6</ele>
        <time>2014-05-24T09:01:37Z</time>
      </trkpt>
      <trkpt lat="45.83205" lon="4.8255">
        <ele>320.6</ele>
        <time>2014-05-24T09:01:39Z</time>
      </trkpt>
      <trkpt lat="45.83207" lon="4.82551">
        <ele>320.4</ele>
        <time>2014-05-24T09:01:44Z</time>
      </trkpt>
      <trkpt lat="45.83206" lon="4.82555">
        <ele>319.8</ele>
        <time>2014-05-24T09:01:51Z</time>
      </trkpt>
      <trkpt lat="45.832" lon="4.82554">
        <ele>319</ele>
        <time>2014-05-24T09:01:58Z</time>
      </trkpt>
      <trkpt lat="45.83198" lon="4.82557">
        <ele>318.8</ele>
        <time>2014-05-24T09:02:01Z</time>
      </trkpt>
      <trkpt lat="45.83195" lon="4.82558">
        <ele>318.6</ele>
        <time>2014-05-24T09:02:04Z</time>
      </trkpt>
      <trkpt lat="45.83196" lon="4.82559">
        <ele>317.6</ele>
        <time>2014-05-24T09:02:12Z</time>
      </trkpt>
      <trkpt lat="45.83198" lon="4.8256">
        <ele>317.2</ele>
        <time>2014-05-24T09:02:15Z</time>
      </trkpt>
      <trkpt lat="45.83198" lon="4.8256">
        <ele>317.2</ele>
        <time>2014-05-24T09:02:16Z</time>
      </trkpt>
      <trkpt lat="45.83203" lon="4.82564">
        <ele>315.4</ele>
        <time>2014-05-24T09:02:37Z</time>
      </trkpt>
      <trkpt lat="45.83201" lon="4.82567">
        <ele>314.6</ele>
        <time>2014-05-24T09:02:47Z</time>
      </trkpt>
      <trkpt lat="45.83198" lon="4.82568">
        <ele>314.6</ele>
        <time>2014-05-24T09:02:55Z</time>
      </trkpt>
      <trkpt lat="45.83198" lon="4.82561">
        <ele>314</ele>
        <time>2014-05-24T09:03:16Z</time>
      </trkpt>
      <trkpt lat="45.832" lon="4.82564">
        <ele>313.8</ele>
        <time>2014-05-24T09:03:20Z</time>
      </trkpt>
      <trkpt lat="45.83197" lon="4.82565">
        <ele>313.6</ele>
        <time>2014-05-24T09:03:23Z</time>
      </trkpt>
      <trkpt lat="45.83195" lon="4.82566">
        <ele>313.2</ele>
        <time>2014-05-24T09:03:28Z</time>
      </trkpt>
      <trkpt lat="45.83194" lon="4.82564">
        <ele>313.4</ele>
        <time>2014-05-24T09:03:42Z</time>
      </trkpt>
      <trkpt lat="45.83195" lon="4.82565">
        <ele>313.6</ele>
        <time>2014-05-24T09:03:46Z</time>
      </trkpt>
      <trkpt lat="45.83199" lon="4.82567">
        <ele>313.4</ele>
        <time>2014-05-24T09:03:53Z</time>
      </trkpt>
      <trkpt lat="45.83201" lon="4.82568">
        <ele>313.4</ele>
        <time>2014-05-24T09:03:55Z</time>
      </trkpt>
      <trkpt lat="45.83201" lon="4.82569">
        <ele>313.4</ele>
        <time>2014-05-24T09:03:59Z</time>
      </trkpt>
      <trkpt lat="45.83204" lon="4.82571">
        <ele>314</ele>
        <time>2014-05-24T09:04:14Z</time>
      </trkpt>
      <trkpt lat="45.83205" lon="4.82572">
        <ele>314.2</ele>
        <time>2014-05-24T09:04:15Z</time>
      </trkpt>
      <trkpt lat="45.832" lon="4.82574">
        <ele>314.2</ele>
        <time>2014-05-24T09:05:20Z</time>
      </trkpt>
      <trkpt lat="45.83204" lon="4.82575">
        <ele>314.8</ele>
        <time>2014-05-24T09:07:02Z</time>
      </trkpt>
      <trkpt lat="45.83205" lon="4.82577">
        <ele>314.8</ele>
        <time>2014-05-24T09:07:06Z</time>
      </trkpt>
      <trkpt lat="45.83204" lon="4.82583">
        <ele>314.6</ele>
        <time>2014-05-24T09:07:15Z</time>
      </trkpt>
      <trkpt lat="45.83203" lon="4.8259">
        <ele>314.2</ele>
        <time>2014-05-24T09:07:31Z</time>
      </trkpt>
      <trkpt lat="45.83203" lon="4.82587">
        <ele>313.8</ele>
        <time>2014-05-24T09:07:39Z</time>
      </trkpt>
      <trkpt lat="45.83205" lon="4.82586">
        <ele>313</ele>
        <time>2014-05-24T09:07:55Z</time>
      </trkpt>
      <trkpt lat="45.83202" lon="4.82583">
        <ele>311.8</ele>
        <time>2014-05-24T09:08:17Z</time>
      </trkpt>
      <trkpt lat="45.83202" lon="4.82581">
        <ele>311.8</ele>
        <time>2014-05-24T09:08:19Z</time>
      </trkpt>
      <trkpt lat="45.83205" lon="4.8258">
        <ele>311.4</ele>
        <time>2014-05-24T09:08:25Z</time>
      </trkpt>
      <trkpt lat="45.83204" lon="4.82577">
        <ele>310.8</ele>
        <time>2014-05-24T09:09:04Z</time>
      </trkpt>
      <trkpt lat="45.83202" lon="4.82576">
        <ele>310.6</ele>
        <time>2014-05-24T09:09:13Z</time>
      </trkpt>
      <trkpt lat="45.83198" lon="4.82573">
        <ele>313.2</ele>
        <time>2014-05-24T09:09:43Z</time>
      </trkpt>
      <trkpt lat="45.83199" lon="4.8257">
        <ele>314.4</ele>
        <time>2014-05-24T09:09:49Z</time>
      </trkpt>
      <trkpt lat="45.83199" lon="4.82568">
        <ele>315.4</ele>
        <time>2014-05-24T09:09:53Z</time>
      </trkpt>
      <trkpt lat="45.83198" lon="4.82567">
        <ele>315.8</ele>
        <time>2014-05-24T09:09:55Z</time>
      </trkpt>
      <trkpt lat="45.83198" lon="4.82564">
        <ele>316.8</ele>
        <time>2014-05-24T09:10:01Z</time>
      </trkpt>
      <trkpt lat="45.83195" lon="4.82558">
        <ele>316.6</ele>
        <time>2014-05-24T09:10:09Z</time>
      </trkpt>
      <trkpt lat="45.83198" lon="4.82551">
        <ele>316.4</ele>
        <time>2014-05-24T09:10:19Z</time>
      </trkpt>
      <trkpt lat="45.83201" lon="4.82552">
        <ele>316.2</ele>
        <time>2014-05-24T09:10:22Z</time>
      </trkpt>
      <trkpt lat="45.83204" lon="4.82554">
        <ele>316</ele>
        <time>2014-05-24T09:10:26Z</time>
      </trkpt>
      <trkpt lat="45.83205" lon="4.82555">
        <ele>315.8</ele>
        <time>2014-05-24T09:10:27Z</time>
      </trkpt>
      <trkpt lat="45.83209" lon="4.82557">
        <ele>315.6</ele>
        <time>2014-05-24T09:10:32Z</time>
      </trkpt>
      <trkpt lat="45.83211" lon="4.8256">
        <ele>315</ele>
        <time>2014-05-24T09:10:38Z</time>
      </trkpt>
      <trkpt lat="45.83216" lon="4.82562">
        <ele>314.6</ele>
        <time>2014-05-24T09:10:43Z</time>
      </trkpt>
      <trkpt lat="45.83218" lon="4.82563">
        <ele>314.6</ele>
        <time>2014-05-24T09:10:45Z</time>
      </trkpt>
      <trkpt lat="45.83219" lon="4.82563">
        <ele>314.4</ele>
        <time>2014-05-24T09:10:47Z</time>
      </trkpt>
      <trkpt lat="45.8322" lon="4.82564">
        <ele>314.2</ele>
        <time>2014-05-24T09:10:50Z</time>
      </trkpt>
      <trkpt lat="45.83217" lon="4.82562">
        <ele>313.2</ele>
        <time>2014-05-24T09:11:07Z</time>
      </trkpt>
      <trkpt lat="45.83212" lon="4.8256">
        <ele>313</ele>
        <time>2014-05-24T09:11:11Z</time>
      </trkpt>
      <trkpt lat="45.83212" lon="4.82561">
        <ele>313</ele>
        <time>2014-05-24T09:11:12Z</time>
      </trkpt>
      <trkpt lat="45.83213" lon="4.82558">
        <ele>312.8</ele>
        <time>2014-05-24T09:11:17Z</time>
      </trkpt>
      <trkpt lat="45.83215" lon="4.82552">
        <ele>312.6</ele>
        <time>2014-05-24T09:11:21Z</time>
      </trkpt>
      <trkpt lat="45.83215" lon="4.82551">
        <ele>312.4</ele>
        <time>2014-05-24T09:11:22Z</time>
      </trkpt>
      <trkpt lat="45.8322" lon="4.82543">
        <ele>312.2</ele>
        <time>2014-05-24T09:11:27Z</time>
      </trkpt>
      <trkpt lat="45.83224" lon="4.82539">
        <ele>312</ele>
        <time>2014-05-24T09:11:30Z</time>
      </trkpt>
      <trkpt lat="45.83226" lon="4.82538">
        <ele>311.8</ele>
        <time>2014-05-24T09:11:32Z</time>
      </trkpt>
      <trkpt lat="45.83227" lon="4.82538">
        <ele>311.6</ele>
        <time>2014-05-24T09:11:34Z</time>
      </trkpt>
      <trkpt lat="45.83228" lon="4.82539">
        <ele>311.6</ele>
        <time>2014-05-24T09:11:35Z</time>
      </trkpt>
      <trkpt lat="45.8323" lon="4.82539">
        <ele>311.4</ele>
        <time>2014-05-24T09:11:36Z</time>
      </trkpt>
      <trkpt lat="45.83233" lon="4.82537">
        <ele>311.2</ele>
        <time>2014-05-24T09:11:40Z</time>
      </trkpt>
      <trkpt lat="45.83234" lon="4.82536">
        <ele>311.2</ele>
        <time>2014-05-24T09:11:41Z</time>
      </trkpt>
      <trkpt lat="45.83238" lon="4.82534">
        <ele>310.8</ele>
        <time>2014-05-24T09:11:45Z</time>
      </trkpt>
      <trkpt lat="45.83239" lon="4.82534">
        <ele>310.8</ele>
        <time>2014-05-24T09:11:46Z</time>
      </trkpt>
      <trkpt lat="45.83246" lon="4.82534">
        <ele>310.2</ele>
        <time>2014-05-24T09:11:54Z</time>
      </trkpt>
      <trkpt lat="45.83248" lon="4.82535">
        <ele>309.8</ele>
        <time>2014-05-24T09:11:58Z</time>
      </trkpt>
      <trkpt lat="45.83252" lon="4.8254">
        <ele>309.4</ele>
        <time>2014-05-24T09:12:03Z</time>
      </trkpt>
      <trkpt lat="45.83255" lon="4.82544">
        <ele>309.2</ele>
        <time>2014-05-24T09:12:07Z</time>
      </trkpt>
      <trkpt lat="45.83256" lon="4.82544">
        <ele>309</ele>
        <time>2014-05-24T09:12:09Z</time>
      </trkpt>
      <trkpt lat="45.83257" lon="4.82545">
        <ele>308.8</ele>
        <time>2014-05-24T09:12:10Z</time>
      </trkpt>
      <trkpt lat="45.8326" lon="4.82545">
        <ele>308.2</ele>
        <time>2014-05-24T09:12:16Z</time>
      </trkpt>
      <trkpt lat="45.83261" lon="4.82546">
        <ele>308</ele>
        <time>2014-05-24T09:12:18Z</time>
      </trkpt>
      <trkpt lat="45.83265" lon="4.82548">
        <ele>307.6</ele>
        <time>2014-05-24T09:12:23Z</time>
      </trkpt>
      <trkpt lat="45.83266" lon="4.82557">
        <ele>307</ele>
        <time>2014-05-24T09:12:29Z</time>
      </trkpt>
      <trkpt lat="45.83267" lon="4.8256">
        <ele>306.8</ele>
        <time>2014-05-24T09:12:31Z</time>
      </trkpt>
      <trkpt lat="45.83266" lon="4.82568">
        <ele>306.4</ele>
        <time>2014-05-24T09:12:35Z</time>
      </trkpt>
      <trkpt lat="45.83265" lon="4.82574">
        <ele>306</ele>
        <time>2014-05-24T09:12:39Z</time>
      </trkpt>
      <trkpt lat="45.83264" lon="4.82576">
        <ele>305.8</ele>
        <time>2014-05-24T09:12:41Z</time>
      </trkpt>
      <trkpt lat="45.83263" lon="4.82578">
        <ele>305.4</ele>
        <time>2014-05-24T09:12:43Z</time>
      </trkpt>
      <trkpt lat="45.83261" lon="4.82577">
        <ele>305.2</ele>
        <time>2014-05-24T09:12:46Z</time>
      </trkpt>
      <trkpt lat="45.8326" lon="4.82578">
        <ele>305</ele>
        <time>2014-05-24T09:12:47Z</time>
      </trkpt>
      <trkpt lat="45.83259" lon="4.8258">
        <ele>304.6</ele>
        <time>2014-05-24T09:12:51Z</time>
      </trkpt>
      <trkpt lat="45.83255" lon="4.82578">
        <ele>304.2</ele>
        <time>2014-05-24T09:12:56Z</time>
      </trkpt>
      <trkpt lat="45.83254" lon="4.82577">
        <ele>304</ele>
        <time>2014-05-24T09:12:57Z</time>
      </trkpt>
      <trkpt lat="45.83252" lon="4.82577">
        <ele>304</ele>
        <time>2014-05-24T09:12:59Z</time>
      </trkpt>
      <trkpt lat="45.83251" lon="4.82577">
        <ele>303.8</ele>
        <time>2014-05-24T09:13:01Z</time>
      </trkpt>
      <trkpt lat="45.83247" lon="4.82576">
        <ele>303.6</ele>
        <time>2014-05-24T09:13:08Z</time>
      </trkpt>
      <trkpt lat="45.83243" lon="4.82575">
        <ele>303.4</ele>
        <time>2014-05-24T09:13:13Z</time>
      </trkpt>
      <trkpt lat="45.83239" lon="4.82572">
        <ele>303.2</ele>
        <time>2014-05-24T09:13:19Z</time>
      </trkpt>
      <trkpt lat="45.83238" lon="4.82574">
        <ele>303.2</ele>
        <time>2014-05-24T09:13:24Z</time>
      </trkpt>
      <trkpt lat="45.83238" lon="4.82577">
        <ele>303</ele>
        <time>2014-05-24T09:13:30Z</time>
      </trkpt>
      <trkpt lat="45.83237" lon="4.82577">
        <ele>303</ele>
        <time>2014-05-24T09:13:31Z</time>
      </trkpt>
      <trkpt lat="45.83235" lon="4.8258">
        <ele>303</ele>
        <time>2014-05-24T09:13:36Z</time>
      </trkpt>
      <trkpt lat="45.83231" lon="4.82582">
        <ele>303</ele>
        <time>2014-05-24T09:13:42Z</time>
      </trkpt>
      <trkpt lat="45.83225" lon="4.82578">
        <ele>303.4</ele>
        <time>2014-05-24T09:13:50Z</time>
      </trkpt>
      <trkpt lat="45.83224" lon="4.82578">
        <ele>303.4</ele>
        <time>2014-05-24T09:13:51Z</time>
      </trkpt>
      <trkpt lat="45.83221" lon="4.82576">
        <ele>303.6</ele>
        <time>2014-05-24T09:13:56Z</time>
      </trkpt>
      <trkpt lat="45.83221" lon="4.82576">
        <ele>303.6</ele>
        <time>2014-05-24T09:13:57Z</time>
      </trkpt>
      <trkpt lat="45.83219" lon="4.82573">
        <ele>303.8</ele>
        <time>2014-05-24T09:14:02Z</time>
      </trkpt>
      <trkpt lat="45.83217" lon="4.82575">
        <ele>304.4</ele>
        <time>2014-05-24T09:14:08Z</time>
      </trkpt>
      <trkpt lat="45.83218" lon="4.82583">
        <ele>304.8</ele>
        <time>2014-05-24T09:14:14Z</time>
      </trkpt>
      <trkpt lat="45.83219" lon="4.82583">
        <ele>305</ele>
        <time>2014-05-24T09:14:15Z</time>
      </trkpt>
      <trkpt lat="45.8322" lon="4.82586">
        <ele>305</ele>
        <time>2014-05-24T09:14:18Z</time>
      </trkpt>
      <trkpt lat="45.83221" lon="4.82589">
        <ele>305</ele>
        <time>2014-05-24T09:14:20Z</time>
      </trkpt>
      <trkpt lat="45.83222" lon="4.82592">
        <ele>305</ele>
        <time>2014-05-24T09:14:23Z</time>
      </trkpt>
      <trkpt lat="45.83222" lon="4.82594">
        <ele>304.8</ele>
        <time>2014-05-24T09:14:25Z</time>
      </trkpt>
      <trkpt lat="45.83221" lon="4.82595">
        <ele>304.8</ele>
        <time>2014-05-24T09:14:32Z</time>
      </trkpt>
      <trkpt lat="45.83221" lon="4.82591">
        <ele>304.8</ele>
        <time>2014-05-24T09:14:37Z</time>
      </trkpt>
      <trkpt lat="45.83218" lon="4.82588">
        <ele>304.8</ele>
        <time>2014-05-24T09:14:42Z</time>
      </trkpt>
      <trkpt lat="45.83217" lon="4.82583">
        <ele>304.6</ele>
        <time>2014-05-24T09:14:47Z</time>
      </trkpt>
      <trkpt lat="45.83217" lon="4.8258">
        <ele>304.6</ele>
        <time>2014-05-24T09:14:49Z</time>
      </trkpt>
      <trkpt lat="45.83218" lon="4.82577">
        <ele>304.4</ele>
        <time>2014-05-24T09:14:52Z</time>
      </trkpt>
      <trkpt lat="45.83217" lon="4.82577">
        <ele>304.4</ele>
        <time>2014-05-24T09:14:53Z</time>
      </trkpt>
      <trkpt lat="45.83218" lon="4.82574">
        <ele>304.4</ele>
        <time>2014-05-24T09:14:56Z</time>
      </trkpt>
      <trkpt lat="45.83216" lon="4.82568">
        <ele>304.2</ele>
        <time>2014-05-24T09:15:02Z</time>
      </trkpt>
      <trkpt lat="45.83217" lon="4.82564">
        <ele>304.2</ele>
        <time>2014-05-24T09:15:08Z</time>
      </trkpt>
      <trkpt lat="45.83216" lon="4.82561">
        <ele>304</ele>
        <time>2014-05-24T09:15:13Z</time>
      </trkpt>
      <trkpt lat="45.83215" lon="4.82561">
        <ele>304</ele>
        <time>2014-05-24T09:15:14Z</time>
      </trkpt>
      <trkpt lat="45.83214" lon="4.82559">
        <ele>304</ele>
        <time>2014-05-24T09:15:16Z</time>
      </trkpt>
      <trkpt lat="45.8321" lon="4.82555">
        <ele>304</ele>
        <time>2014-05-24T09:15:20Z</time>
      </trkpt>
      <trkpt lat="45.83209" lon="4.82555">
        <ele>304.2</ele>
        <time>2014-05-24T09:15:21Z</time>
      </trkpt>
      <trkpt lat="45.83206" lon="4.82555">
        <ele>304.2</ele>
        <time>2014-05-24T09:15:25Z</time>
      </trkpt>
      <trkpt lat="45.83204" lon="4.82556">
        <ele>304.4</ele>
        <time>2014-05-24T09:15:27Z</time>
      </trkpt>
      <trkpt lat="45.832" lon="4.82551">
        <ele>304.6</ele>
        <time>2014-05-24T09:15:32Z</time>
      </trkpt>
      <trkpt lat="45.832" lon="4.8255">
        <ele>304.6</ele>
        <time>2014-05-24T09:15:33Z</time>
      </trkpt>
      <trkpt lat="45.832" lon="4.82549">
        <ele>304.6</ele>
        <time>2014-05-24T09:15:34Z</time>
      </trkpt>
      <trkpt lat="45.832" lon="4.82547">
        <ele>304.6</ele>
        <time>2014-05-24T09:15:36Z</time>
      </trkpt>
      <trkpt lat="45.83204" lon="4.82543">
        <ele>309.2</ele>
        <time>2014-05-24T09:16:00Z</time>
      </trkpt>
      <trkpt lat="45.83206" lon="4.82543">
        <ele>311</ele>
        <time>2014-05-24T09:16:06Z</time>
      </trkpt>
      <trkpt lat="45.83198" lon="4.82547">
        <ele>319.2</ele>
        <time>2014-05-24T09:16:35Z</time>
      </trkpt>
      <trkpt lat="45.832" lon="4.82546">
        <ele>319.6</ele>
        <time>2014-05-24T09:16:37Z</time>
      </trkpt>
      <trkpt lat="45.83202" lon="4.82542">
        <ele>320.8</ele>
        <time>2014-05-24T09:16:42Z</time>
      </trkpt>
      <trkpt lat="45.83201" lon="4.82534">
        <ele>324.4</ele>
        <time>2014-05-24T09:17:03Z</time>
      </trkpt>
      <trkpt lat="45.832" lon="4.82534">
        <ele>324.6</ele>
        <time>2014-05-24T09:17:04Z</time>
      </trkpt>
      <trkpt lat="45.83198" lon="4.82533">
        <ele>324.4</ele>
        <time>2014-05-24T09:17:05Z</time>
      </trkpt>
      <trkpt lat="45.83194" lon="4.82533">
        <ele>324.6</ele>
        <time>2014-05-24T09:17:09Z</time>
      </trkpt>
      <trkpt lat="45.83189" lon="4.82533">
        <ele>324.6</ele>
        <time>2014-05-24T09:17:15Z</time>
      </trkpt>
      <trkpt lat="45.83186" lon="4.82534">
        <ele>324.6</ele>
        <time>2014-05-24T09:17:20Z</time>
      </trkpt>
      <trkpt lat="45.83183" lon="4.82536">
        <ele>324.6</ele>
        <time>2014-05-24T09:17:23Z</time>
      </trkpt>
      <trkpt lat="45.83182" lon="4.82537">
        <ele>324.6</ele>
        <time>2014-05-24T09:17:24Z</time>
      </trkpt>
      <trkpt lat="45.83179" lon="4.82538">
        <ele>324.4</ele>
        <time>2014-05-24T09:17:27Z</time>
      </trkpt>
      <trkpt lat="45.83178" lon="4.82535">
        <ele>324.4</ele>
        <time>2014-05-24T09:17:30Z</time>
      </trkpt>
      <trkpt lat="45.83178" lon="4.82534">
        <ele>324.4</ele>
        <time>2014-05-24T09:17:31Z</time>
      </trkpt>
      <trkpt lat="45.83177" lon="4.82532">
        <ele>324.2</ele>
        <time>2014-05-24T09:17:33Z</time>
      </trkpt>
      <trkpt lat="45.83177" lon="4.82531">
        <ele>324.2</ele>
        <time>2014-05-24T09:17:34Z</time>
      </trkpt>
      <trkpt lat="45.83177" lon="4.82526">
        <ele>324.2</ele>
        <time>2014-05-24T09:17:41Z</time>
      </trkpt>
      <trkpt lat="45.83178" lon="4.82517">
        <ele>324.2</ele>
        <time>2014-05-24T09:17:56Z</time>
      </trkpt>
      <trkpt lat="45.8318" lon="4.82515">
        <ele>324.4</ele>
        <time>2014-05-24T09:17:59Z</time>
      </trkpt>
      <trkpt lat="45.83179" lon="4.82512">
        <ele>324.4</ele>
        <time>2014-05-24T09:18:02Z</time>
      </trkpt>
      <trkpt lat="45.83179" lon="4.82509">
        <ele>324.6</ele>
        <time>2014-05-24T09:18:05Z</time>
      </trkpt>
      <trkpt lat="45.8318" lon="4.82493">
        <ele>326</ele>
        <time>2014-05-24T09:18:20Z</time>
      </trkpt>
      <trkpt lat="45.83179" lon="4.8249">
        <ele>325.8</ele>
        <time>2014-05-24T09:18:24Z</time>
      </trkpt>
      <trkpt lat="45.83179" lon="4.82487">
        <ele>326.2</ele>
        <time>2014-05-24T09:18:27Z</time>
      </trkpt>
      <trkpt lat="45.83178" lon="4.82487">
        <ele>326.4</ele>
        <time>2014-05-24T09:18:28Z</time>
      </trkpt>
      <trkpt lat="45.83175" lon="4.82481">
        <ele>327</ele>
        <time>2014-05-24T09:18:33Z</time>
      </trkpt>
      <trkpt lat="45.83174" lon="4.82479">
        <ele>327</ele>
        <time>2014-05-24T09:18:35Z</time>
      </trkpt>
      <trkpt lat="45.83174" lon="4.82476">
        <ele>327</ele>
        <time>2014-05-24T09:18:39Z</time>
      </trkpt>
      <trkpt lat="45.83173" lon="4.82475">
        <ele>327</ele>
        <time>2014-05-24T09:18:40Z</time>
      </trkpt>
      <trkpt lat="45.83169" lon="4.82471">
        <ele>327</ele>
        <time>2014-05-24T09:18:44Z</time>
      </trkpt>
      <trkpt lat="45.83169" lon="4.82471">
        <ele>327</ele>
        <time>2014-05-24T09:18:46Z</time>
      </trkpt>
      <trkpt lat="45.83168" lon="4.82467">
        <ele>327.2</ele>
        <time>2014-05-24T09:18:52Z</time>
      </trkpt>
      <trkpt lat="45.83165" lon="4.82462">
        <ele>329</ele>
        <time>2014-05-24T09:19:00Z</time>
      </trkpt>
      <trkpt lat="45.83165" lon="4.82457">
        <ele>330.8</ele>
        <time>2014-05-24T09:19:08Z</time>
      </trkpt>
      <trkpt lat="45.83165" lon="4.82451">
        <ele>332.4</ele>
        <time>2014-05-24T09:19:17Z</time>
      </trkpt>
      <trkpt lat="45.83162" lon="4.82447">
        <ele>333.2</ele>
        <time>2014-05-24T09:19:23Z</time>
      </trkpt>
      <trkpt lat="45.8316" lon="4.82445">
        <ele>333.8</ele>
        <time>2014-05-24T09:19:28Z</time>
      </trkpt>
      <trkpt lat="45.83156" lon="4.82444">
        <ele>334.4</ele>
        <time>2014-05-24T09:19:32Z</time>
      </trkpt>
      <trkpt lat="45.83151" lon="4.82442">
        <ele>335.2</ele>
        <time>2014-05-24T09:19:37Z</time>
      </trkpt>
      <trkpt lat="45.83146" lon="4.82443">
        <ele>335.6</ele>
        <time>2014-05-24T09:19:42Z</time>
      </trkpt>
      <trkpt lat="45.83145" lon="4.82443">
        <ele>335.6</ele>
        <time>2014-05-24T09:19:43Z</time>
      </trkpt>
      <trkpt lat="45.83143" lon="4.82447">
        <ele>336.4</ele>
        <time>2014-05-24T09:19:48Z</time>
      </trkpt>
      <trkpt lat="45.83142" lon="4.82452">
        <ele>337</ele>
        <time>2014-05-24T09:19:52Z</time>
      </trkpt>
      <trkpt lat="45.83142" lon="4.82453">
        <ele>337.2</ele>
        <time>2014-05-24T09:19:53Z</time>
      </trkpt>
      <trkpt lat="45.83141" lon="4.82454">
        <ele>337.4</ele>
        <time>2014-05-24T09:19:54Z</time>
      </trkpt>
      <trkpt lat="45.83137" lon="4.82455">
        <ele>337.4</ele>
        <time>2014-05-24T09:19:56Z</time>
      </trkpt>
      <trkpt lat="45.83135" lon="4.82455">
        <ele>337.6</ele>
        <time>2014-05-24T09:19:57Z</time>
      </trkpt>
      <trkpt lat="45.83133" lon="4.8245">
        <ele>338.2</ele>
        <time>2014-05-24T09:20:02Z</time>
      </trkpt>
      <trkpt lat="45.83133" lon="4.82442">
        <ele>338.4</ele>
        <time>2014-05-24T09:20:07Z</time>
      </trkpt>
      <trkpt lat="45.83133" lon="4.82438">
        <ele>338.2</ele>
        <time>2014-05-24T09:20:10Z</time>
      </trkpt>
      <trkpt lat="45.83133" lon="4.82436">
        <ele>338.2</ele>
        <time>2014-05-24T09:20:11Z</time>
      </trkpt>
      <trkpt lat="45.83134" lon="4.82432">
        <ele>338.2</ele>
        <time>2014-05-24T09:20:14Z</time>
      </trkpt>
      <trkpt lat="45.83134" lon="4.8243">
        <ele>338.2</ele>
        <time>2014-05-24T09:20:16Z</time>
      </trkpt>
      <trkpt lat="45.83133" lon="4.82422">
        <ele>338.2</ele>
        <time>2014-05-24T09:20:22Z</time>
      </trkpt>
      <trkpt lat="45.83132" lon="4.82413">
        <ele>338.2</ele>
        <time>2014-05-24T09:20:27Z</time>
      </trkpt>
      <trkpt lat="45.83133" lon="4.82406">
        <ele>338.6</ele>
        <time>2014-05-24T09:20:31Z</time>
      </trkpt>
      <trkpt lat="45.83133" lon="4.82405">
        <ele>338.8</ele>
        <time>2014-05-24T09:20:32Z</time>
      </trkpt>
      <trkpt lat="45.83134" lon="4.82393">
        <ele>339.6</ele>
        <time>2014-05-24T09:20:39Z</time>
      </trkpt>
      <trkpt lat="45.83135" lon="4.82392">
        <ele>339.6</ele>
        <time>2014-05-24T09:20:40Z</time>
      </trkpt>
      <trkpt lat="45.83136" lon="4.82389">
        <ele>339.6</ele>
        <time>2014-05-24T09:20:43Z</time>
      </trkpt>
      <trkpt lat="45.83136" lon="4.82386">
        <ele>339.6</ele>
        <time>2014-05-24T09:20:45Z</time>
      </trkpt>
      <trkpt lat="45.83136" lon="4.82383">
        <ele>339.6</ele>
        <time>2014-05-24T09:20:47Z</time>
      </trkpt>
      <trkpt lat="45.83137" lon="4.82378">
        <ele>339.4</ele>
        <time>2014-05-24T09:20:50Z</time>
      </trkpt>
      <trkpt lat="45.83137" lon="4.82376">
        <ele>339.4</ele>
        <time>2014-05-24T09:20:51Z</time>
      </trkpt>
      <trkpt lat="45.83139" lon="4.82372">
        <ele>339.4</ele>
        <time>2014-05-24T09:20:54Z</time>
      </trkpt>
      <trkpt lat="45.83139" lon="4.82365">
        <ele>339.4</ele>
        <time>2014-05-24T09:20:58Z</time>
      </trkpt>
      <trkpt lat="45.83136" lon="4.82356">
        <ele>339.4</ele>
        <time>2014-05-24T09:21:02Z</time>
      </trkpt>
      <trkpt lat="45.83136" lon="4.82353">
        <ele>339.6</ele>
        <time>2014-05-24T09:21:03Z</time>
      </trkpt>
      <trkpt lat="45.83135" lon="4.82342">
        <ele>340.2</ele>
        <time>2014-05-24T09:21:09Z</time>
      </trkpt>
      <trkpt lat="45.83135" lon="4.82341">
        <ele>340.2</ele>
        <time>2014-05-24T09:21:10Z</time>
      </trkpt>
      <trkpt lat="45.83136" lon="4.82332">
        <ele>341.2</ele>
        <time>2014-05-24T09:21:15Z</time>
      </trkpt>
      <trkpt lat="45.83134" lon="4.82325">
        <ele>341.4</ele>
        <time>2014-05-24T09:21:18Z</time>
      </trkpt>
      <trkpt lat="45.83133" lon="4.82321">
        <ele>341.8</ele>
        <time>2014-05-24T09:21:20Z</time>
      </trkpt>
      <trkpt lat="45.8313" lon="4.82318">
        <ele>342.4</ele>
        <time>2014-05-24T09:21:24Z</time>
      </trkpt>
      <trkpt lat="45.83128" lon="4.82317">
        <ele>342.6</ele>
        <time>2014-05-24T09:21:25Z</time>
      </trkpt>
      <trkpt lat="45.83128" lon="4.82314">
        <ele>342.8</ele>
        <time>2014-05-24T09:21:26Z</time>
      </trkpt>
      <trkpt lat="45.83128" lon="4.82303">
        <ele>343</ele>
        <time>2014-05-24T09:21:30Z</time>
      </trkpt>
      <trkpt lat="45.83129" lon="4.82293">
        <ele>343.6</ele>
        <time>2014-05-24T09:21:35Z</time>
      </trkpt>
      <trkpt lat="45.83129" lon="4.82291">
        <ele>343.8</ele>
        <time>2014-05-24T09:21:36Z</time>
      </trkpt>
      <trkpt lat="45.83128" lon="4.82283">
        <ele>344</ele>
        <time>2014-05-24T09:21:40Z</time>
      </trkpt>
      <trkpt lat="45.83129" lon="4.82281">
        <ele>344.2</ele>
        <time>2014-05-24T09:21:42Z</time>
      </trkpt>
      <trkpt lat="45.83129" lon="4.82277">
        <ele>344.4</ele>
        <time>2014-05-24T09:21:45Z</time>
      </trkpt>
      <trkpt lat="45.83132" lon="4.82271">
        <ele>346.4</ele>
        <time>2014-05-24T09:21:55Z</time>
      </trkpt>
      <trkpt lat="45.83133" lon="4.82272">
        <ele>347.2</ele>
        <time>2014-05-24T09:21:59Z</time>
      </trkpt>
      <trkpt lat="45.83136" lon="4.82271">
        <ele>349.8</ele>
        <time>2014-05-24T09:22:09Z</time>
      </trkpt>
      <trkpt lat="45.83139" lon="4.82275">
        <ele>351.8</ele>
        <time>2014-05-24T09:22:19Z</time>
      </trkpt>
      <trkpt lat="45.8314" lon="4.82275">
        <ele>351.8</ele>
        <time>2014-05-24T09:22:20Z</time>
      </trkpt>
      <trkpt lat="45.83153" lon="4.82278">
        <ele>359</ele>
        <time>2014-05-24T09:22:58Z</time>
      </trkpt>
      <trkpt lat="45.83141" lon="4.82278">
        <ele>360.4</ele>
        <time>2014-05-24T09:23:08Z</time>
      </trkpt>
      <trkpt lat="45.8314" lon="4.82277">
        <ele>360.4</ele>
        <time>2014-05-24T09:23:09Z</time>
      </trkpt>
      <trkpt lat="45.83141" lon="4.82276">
        <ele>361</ele>
        <time>2014-05-24T09:23:13Z</time>
      </trkpt>
      <trkpt lat="45.83141" lon="4.82274">
        <ele>361</ele>
        <time>2014-05-24T09:23:17Z</time>
      </trkpt>
      <trkpt lat="45.83137" lon="4.8227">
        <ele>360.8</ele>
        <time>2014-05-24T09:23:20Z</time>
      </trkpt>
      <trkpt lat="45.83138" lon="4.82267">
        <ele>360.8</ele>
        <time>2014-05-24T09:23:22Z</time>
      </trkpt>
      <trkpt lat="45.8314" lon="4.82267">
        <ele>360.6</ele>
        <time>2014-05-24T09:23:24Z</time>
      </trkpt>
      <trkpt lat="45.8314" lon="4.82269">
        <ele>360.4</ele>
        <time>2014-05-24T09:23:26Z</time>
      </trkpt>
      <trkpt lat="45.8314" lon="4.82271">
        <ele>360</ele>
        <time>2014-05-24T09:23:30Z</time>
      </trkpt>
      <trkpt lat="45.8314" lon="4.82272">
        <ele>359.8</ele>
        <time>2014-05-24T09:23:32Z</time>
      </trkpt>
      <trkpt lat="45.83137" lon="4.82276">
        <ele>359</ele>
        <time>2014-05-24T09:23:41Z</time>
      </trkpt>
      <trkpt lat="45.83135" lon="4.82277">
        <ele>359</ele>
        <time>2014-05-24T09:23:43Z</time>
      </trkpt>
      <trkpt lat="45.83135" lon="4.82279">
        <ele>358.6</ele>
        <time>2014-05-24T09:23:48Z</time>
      </trkpt>
      <trkpt lat="45.83141" lon="4.82273">
        <ele>359.2</ele>
        <time>2014-05-24T09:24:09Z</time>
      </trkpt>
      <trkpt lat="45.8314" lon="4.82275">
        <ele>359.2</ele>
        <time>2014-05-24T09:24:11Z</time>
      </trkpt>
      <trkpt lat="45.83139" lon="4.82276">
        <ele>359.2</ele>
        <time>2014-05-24T09:24:13Z</time>
      </trkpt>
      <trkpt lat="45.83137" lon="4.82274">
        <ele>359.4</ele>
        <time>2014-05-24T09:24:18Z</time>
      </trkpt>
      <trkpt lat="45.83134" lon="4.8227">
        <ele>359.4</ele>
        <time>2014-05-24T09:24:21Z</time>
      </trkpt>
      <trkpt lat="45.83136" lon="4.82275">
        <ele>359.2</ele>
        <time>2014-05-24T09:24:26Z</time>
      </trkpt>
      <trkpt lat="45.83134" lon="4.82274">
        <ele>359</ele>
        <time>2014-05-24T09:24:29Z</time>
      </trkpt>
      <trkpt lat="45.83134" lon="4.82274">
        <ele>358.8</ele>
        <time>2014-05-24T09:24:30Z</time>
      </trkpt>
      <trkpt lat="45.83134" lon="4.8227">
        <ele>358</ele>
        <time>2014-05-24T09:24:42Z</time>
      </trkpt>
      <trkpt lat="45.83135" lon="4.82268">
        <ele>357.8</ele>
        <time>2014-05-24T09:24:44Z</time>
      </trkpt>
      <trkpt lat="45.83141" lon="4.82266">
        <ele>357.8</ele>
        <time>2014-05-24T09:24:47Z</time>
      </trkpt>
      <trkpt lat="45.83142" lon="4.82266">
        <ele>357.6</ele>
        <time>2014-05-24T09:24:48Z</time>
      </trkpt>
      <trkpt lat="45.83146" lon="4.82267">
        <ele>357.4</ele>
        <time>2014-05-24T09:24:50Z</time>
      </trkpt>
      <trkpt lat="45.83148" lon="4.82269">
        <ele>357.2</ele>
        <time>2014-05-24T09:24:52Z</time>
      </trkpt>
      <trkpt lat="45.83148" lon="4.8227">
        <ele>357.2</ele>
        <time>2014-05-24T09:24:53Z</time>
      </trkpt>
      <trkpt lat="45.83148" lon="4.82271">
        <ele>357.2</ele>
        <time>2014-05-24T09:24:54Z</time>
      </trkpt>
      <trkpt lat="45.83151" lon="4.8227">
        <ele>356.6</ele>
        <time>2014-05-24T09:25:01Z</time>
      </trkpt>
      <trkpt lat="45.83154" lon="4.82268">
        <ele>355.6</ele>
        <time>2014-05-24T09:25:10Z</time>
      </trkpt>
      <trkpt lat="45.83156" lon="4.82267">
        <ele>354.8</ele>
        <time>2014-05-24T09:25:15Z</time>
      </trkpt>
      <trkpt lat="45.83161" lon="4.82266">
        <ele>354</ele>
        <time>2014-05-24T09:25:22Z</time>
      </trkpt>
      <trkpt lat="45.83166" lon="4.82266">
        <ele>353.2</ele>
        <time>2014-05-24T09:25:28Z</time>
      </trkpt>
      <trkpt lat="45.8317" lon="4.82262">
        <ele>352.6</ele>
        <time>2014-05-24T09:25:35Z</time>
      </trkpt>
      <trkpt lat="45.83173" lon="4.8226">
        <ele>352.4</ele>
        <time>2014-05-24T09:25:38Z</time>
      </trkpt>
      <trkpt lat="45.83173" lon="4.82254">
        <ele>351.8</ele>
        <time>2014-05-24T09:25:45Z</time>
      </trkpt>
      <trkpt lat="45.83176" lon="4.8225">
        <ele>351.2</ele>
        <time>2014-05-24T09:25:51Z</time>
      </trkpt>
      <trkpt lat="45.83179" lon="4.82248">
        <ele>351</ele>
        <time>2014-05-24T09:25:54Z</time>
      </trkpt>
      <trkpt lat="45.8318" lon="4.82247">
        <ele>350.6</ele>
        <time>2014-05-24T09:25:56Z</time>
      </trkpt>
      <trkpt lat="45.83182" lon="4.82249">
        <ele>350.4</ele>
        <time>2014-05-24T09:25:59Z</time>
      </trkpt>
      <trkpt lat="45.83187" lon="4.82247">
        <ele>349</ele>
        <time>2014-05-24T09:26:12Z</time>
      </trkpt>
      <trkpt lat="45.83192" lon="4.82245">
        <ele>348.4</ele>
        <time>2014-05-24T09:26:18Z</time>
      </trkpt>
      <trkpt lat="45.83196" lon="4.82241">
        <ele>348.2</ele>
        <time>2014-05-24T09:26:22Z</time>
      </trkpt>
      <trkpt lat="45.83196" lon="4.8224">
        <ele>348</ele>
        <time>2014-05-24T09:26:23Z</time>
      </trkpt>
      <trkpt lat="45.83198" lon="4.82238">
        <ele>347.2</ele>
        <time>2014-05-24T09:26:30Z</time>
      </trkpt>
      <trkpt lat="45.83198" lon="4.82238">
        <ele>347.2</ele>
        <time>2014-05-24T09:26:31Z</time>
      </trkpt>
      <trkpt lat="45.83201" lon="4.82238">
        <ele>346.8</ele>
        <time>2014-05-24T09:26:35Z</time>
      </trkpt>
      <trkpt lat="45.83202" lon="4.82238">
        <ele>346.6</ele>
        <time>2014-05-24T09:26:36Z</time>
      </trkpt>
      <trkpt lat="45.83202" lon="4.82239">
        <ele>345.6</ele>
        <time>2014-05-24T09:26:43Z</time>
      </trkpt>
      <trkpt lat="45.83203" lon="4.82243">
        <ele>345</ele>
        <time>2014-05-24T09:26:47Z</time>
      </trkpt>
      <trkpt lat="45.83203" lon="4.82244">
        <ele>344.8</ele>
        <time>2014-05-24T09:26:48Z</time>
      </trkpt>
      <trkpt lat="45.83205" lon="4.82246">
        <ele>344.4</ele>
        <time>2014-05-24T09:26:51Z</time>
      </trkpt>
      <trkpt lat="45.83207" lon="4.82246">
        <ele>344.4</ele>
        <time>2014-05-24T09:26:52Z</time>
      </trkpt>
      <trkpt lat="45.83211" lon="4.82244">
        <ele>343.8</ele>
        <time>2014-05-24T09:26:56Z</time>
      </trkpt>
      <trkpt lat="45.83211" lon="4.82243">
        <ele>343.6</ele>
        <time>2014-05-24T09:26:57Z</time>
      </trkpt>
      <trkpt lat="45.83212" lon="4.82241">
        <ele>343.4</ele>
        <time>2014-05-24T09:26:59Z</time>
      </trkpt>
      <trkpt lat="45.83211" lon="4.82238">
        <ele>343.2</ele>
        <time>2014-05-24T09:27:01Z</time>
      </trkpt>
      <trkpt lat="45.83213" lon="4.82237">
        <ele>342.4</ele>
        <time>2014-05-24T09:27:08Z</time>
      </trkpt>
      <trkpt lat="45.83213" lon="4.82238">
        <ele>342.2</ele>
        <time>2014-05-24T09:27:09Z</time>
      </trkpt>
      <trkpt lat="45.83215" lon="4.82236">
        <ele>341.2</ele>
        <time>2014-05-24T09:27:16Z</time>
      </trkpt>
      <trkpt lat="45.83212" lon="4.82233">
        <ele>340.4</ele>
        <time>2014-05-24T09:27:21Z</time>
      </trkpt>
      <trkpt lat="45.8321" lon="4.82231">
        <ele>339.2</ele>
        <time>2014-05-24T09:27:28Z</time>
      </trkpt>
      <trkpt lat="45.83213" lon="4.82234">
        <ele>337</ele>
        <time>2014-05-24T09:27:42Z</time>
      </trkpt>
      <trkpt lat="45.83215" lon="4.82237">
        <ele>336.4</ele>
        <time>2014-05-24T09:27:45Z</time>
      </trkpt>
      <trkpt lat="45.83217" lon="4.82243">
        <ele>334.2</ele>
        <time>2014-05-24T09:28:01Z</time>
      </trkpt>
      <trkpt lat="45.83217" lon="4.82244">
        <ele>334</ele>
        <time>2014-05-24T09:28:02Z</time>
      </trkpt>
      <trkpt lat="45.83217" lon="4.82248">
        <ele>333.6</ele>
        <time>2014-05-24T09:28:07Z</time>
      </trkpt>
      <trkpt lat="45.83222" lon="4.82247">
        <ele>333</ele>
        <time>2014-05-24T09:28:14Z</time>
      </trkpt>
      <trkpt lat="45.83218" lon="4.82239">
        <ele>331.6</ele>
        <time>2014-05-24T09:28:26Z</time>
      </trkpt>
      <trkpt lat="45.83219" lon="4.8224">
        <ele>331.6</ele>
        <time>2014-05-24T09:28:27Z</time>
      </trkpt>
      <trkpt lat="45.8322" lon="4.82239">
        <ele>331.4</ele>
        <time>2014-05-24T09:28:28Z</time>
      </trkpt>
      <trkpt lat="45.83222" lon="4.82238">
        <ele>331.2</ele>
        <time>2014-05-24T09:28:32Z</time>
      </trkpt>
      <trkpt lat="45.8323" lon="4.82234">
        <ele>330.6</ele>
        <time>2014-05-24T09:28:45Z</time>
      </trkpt>
      <trkpt lat="45.83229" lon="4.82233">
        <ele>330.4</ele>
        <time>2014-05-24T09:28:46Z</time>
      </trkpt>
      <trkpt lat="45.8323" lon="4.82233">
        <ele>330.2</ele>
        <time>2014-05-24T09:28:50Z</time>
      </trkpt>
      <trkpt lat="45.8323" lon="4.82233">
        <ele>330</ele>
        <time>2014-05-24T09:28:54Z</time>
      </trkpt>
      <trkpt lat="45.8323" lon="4.8223">
        <ele>329.8</ele>
        <time>2014-05-24T09:28:58Z</time>
      </trkpt>
      <trkpt lat="45.83231" lon="4.8223">
        <ele>329.8</ele>
        <time>2014-05-24T09:28:59Z</time>
      </trkpt>
      <trkpt lat="45.83235" lon="4.82227">
        <ele>329.6</ele>
        <time>2014-05-24T09:29:04Z</time>
      </trkpt>
      <trkpt lat="45.83236" lon="4.82227">
        <ele>329.4</ele>
        <time>2014-05-24T09:29:06Z</time>
      </trkpt>
      <trkpt lat="45.83237" lon="4.82227">
        <ele>329.2</ele>
        <time>2014-05-24T09:29:12Z</time>
      </trkpt>
      <trkpt lat="45.83239" lon="4.82227">
        <ele>328.8</ele>
        <time>2014-05-24T09:29:16Z</time>
      </trkpt>
      <trkpt lat="45.83243" lon="4.82229">
        <ele>328.4</ele>
        <time>2014-05-24T09:29:22Z</time>
      </trkpt>
      <trkpt lat="45.83245" lon="4.8223">
        <ele>328</ele>
        <time>2014-05-24T09:29:28Z</time>
      </trkpt>
      <trkpt lat="45.83246" lon="4.82231">
        <ele>328</ele>
        <time>2014-05-24T09:29:30Z</time>
      </trkpt>
      <trkpt lat="45.83245" lon="4.82231">
        <ele>327.8</ele>
        <time>2014-05-24T09:29:34Z</time>
      </trkpt>
      <trkpt lat="45.83246" lon="4.82228">
        <ele>327.2</ele>
        <time>2014-05-24T09:29:41Z</time>
      </trkpt>
      <trkpt lat="45.83248" lon="4.82225">
        <ele>326.8</ele>
        <time>2014-05-24T09:29:46Z</time>
      </trkpt>
      <trkpt lat="45.83249" lon="4.82222">
        <ele>326</ele>
        <time>2014-05-24T09:29:56Z</time>
      </trkpt>
      <trkpt lat="45.83247" lon="4.82219">
        <ele>324.2</ele>
        <time>2014-05-24T09:30:09Z</time>
      </trkpt>
      <trkpt lat="45.83247" lon="4.82216">
        <ele>323.2</ele>
        <time>2014-05-24T09:30:15Z</time>
      </trkpt>
      <trkpt lat="45.83244" lon="4.82212">
        <ele>321.6</ele>
        <time>2014-05-24T09:30:24Z</time>
      </trkpt>
      <trkpt lat="45.83241" lon="4.82212">
        <ele>320.6</ele>
        <time>2014-05-24T09:30:31Z</time>
      </trkpt>
      <trkpt lat="45.8324" lon="4.82211">
        <ele>319.6</ele>
        <time>2014-05-24T09:30:37Z</time>
      </trkpt>
      <trkpt lat="45.83236" lon="4.8221">
        <ele>318.6</ele>
        <time>2014-05-24T09:30:45Z</time>
      </trkpt>
      <trkpt lat="45.83235" lon="4.8221">
        <ele>318</ele>
        <time>2014-05-24T09:30:51Z</time>
      </trkpt>
      <trkpt lat="45.83232" lon="4.82207">
        <ele>317.4</ele>
        <time>2014-05-24T09:30:58Z</time>
      </trkpt>
      <trkpt lat="45.83232" lon="4.82206">
        <ele>317.2</ele>
        <time>2014-05-24T09:30:59Z</time>
      </trkpt>
      <trkpt lat="45.8323" lon="4.82205">
        <ele>316.6</ele>
        <time>2014-05-24T09:31:05Z</time>
      </trkpt>
      <trkpt lat="45.83226" lon="4.82202">
        <ele>316</ele>
        <time>2014-05-24T09:31:12Z</time>
      </trkpt>
      <trkpt lat="45.83224" lon="4.82203">
        <ele>315.8</ele>
        <time>2014-05-24T09:31:14Z</time>
      </trkpt>
      <trkpt lat="45.8322" lon="4.82203">
        <ele>315.8</ele>
        <time>2014-05-24T09:31:18Z</time>
      </trkpt>
      <trkpt lat="45.83219" lon="4.82204">
        <ele>315.6</ele>
        <time>2014-05-24T09:31:20Z</time>
      </trkpt>
      <trkpt lat="45.83217" lon="4.82207">
        <ele>315.6</ele>
        <time>2014-05-24T09:31:25Z</time>
      </trkpt>
      <trkpt lat="45.83216" lon="4.82207">
        <ele>315.4</ele>
        <time>2014-05-24T09:31:29Z</time>
      </trkpt>
      <trkpt lat="45.83217" lon="4.82209">
        <ele>315.2</ele>
        <time>2014-05-24T09:31:40Z</time>
      </trkpt>
      <trkpt lat="45.8322" lon="4.8221">
        <ele>315</ele>
        <time>2014-05-24T09:31:46Z</time>
      </trkpt>
      <trkpt lat="45.83217" lon="4.82209">
        <ele>314.8</ele>
        <time>2014-05-24T09:31:53Z</time>
      </trkpt>
      <trkpt lat="45.83214" lon="4.82205">
        <ele>314.6</ele>
        <time>2014-05-24T09:31:59Z</time>
      </trkpt>
      <trkpt lat="45.83212" lon="4.82203">
        <ele>314.6</ele>
        <time>2014-05-24T09:32:03Z</time>
      </trkpt>
      <trkpt lat="45.83212" lon="4.82202">
        <ele>314.8</ele>
        <time>2014-05-24T09:32:04Z</time>
      </trkpt>
      <trkpt lat="45.8321" lon="4.82202">
        <ele>315</ele>
        <time>2014-05-24T09:32:06Z</time>
      </trkpt>
      <trkpt lat="45.83207" lon="4.82203">
        <ele>316</ele>
        <time>2014-05-24T09:32:12Z</time>
      </trkpt>
      <trkpt lat="45.83205" lon="4.82205">
        <ele>316.4</ele>
        <time>2014-05-24T09:32:19Z</time>
      </trkpt>
      <trkpt lat="45.83205" lon="4.82208">
        <ele>317</ele>
        <time>2014-05-24T09:32:24Z</time>
      </trkpt>
      <trkpt lat="45.83205" lon="4.82213">
        <ele>317.2</ele>
        <time>2014-05-24T09:32:29Z</time>
      </trkpt>
      <trkpt lat="45.83209" lon="4.82219">
        <ele>317.8</ele>
        <time>2014-05-24T09:32:39Z</time>
      </trkpt>
      <trkpt lat="45.83211" lon="4.82223">
        <ele>319</ele>
        <time>2014-05-24T09:32:46Z</time>
      </trkpt>
      <trkpt lat="45.83211" lon="4.82224">
        <ele>319.2</ele>
        <time>2014-05-24T09:32:47Z</time>
      </trkpt>
      <trkpt lat="45.83209" lon="4.82227">
        <ele>319.8</ele>
        <time>2014-05-24T09:32:51Z</time>
      </trkpt>
      <trkpt lat="45.83206" lon="4.82227">
        <ele>320</ele>
        <time>2014-05-24T09:32:53Z</time>
      </trkpt>
      <trkpt lat="45.83203" lon="4.82226">
        <ele>320.2</ele>
        <time>2014-05-24T09:32:56Z</time>
      </trkpt>
      <trkpt lat="45.83201" lon="4.82229">
        <ele>320.2</ele>
        <time>2014-05-24T09:33:00Z</time>
      </trkpt>
      <trkpt lat="45.83198" lon="4.82231">
        <ele>320.2</ele>
        <time>2014-05-24T09:33:03Z</time>
      </trkpt>
      <trkpt lat="45.83197" lon="4.82233">
        <ele>320.2</ele>
        <time>2014-05-24T09:33:06Z</time>
      </trkpt>
      <trkpt lat="45.83194" lon="4.82234">
        <ele>320</ele>
        <time>2014-05-24T09:33:10Z</time>
      </trkpt>
      <trkpt lat="45.83191" lon="4.82237">
        <ele>319.8</ele>
        <time>2014-05-24T09:33:14Z</time>
      </trkpt>
      <trkpt lat="45.83191" lon="4.82244">
        <ele>319.6</ele>
        <time>2014-05-24T09:33:21Z</time>
      </trkpt>
      <trkpt lat="45.83191" lon="4.82245">
        <ele>319.8</ele>
        <time>2014-05-24T09:33:22Z</time>
      </trkpt>
      <trkpt lat="45.83189" lon="4.82248">
        <ele>320</ele>
        <time>2014-05-24T09:33:26Z</time>
      </trkpt>
      <trkpt lat="45.83188" lon="4.82248">
        <ele>320</ele>
        <time>2014-05-24T09:33:27Z</time>
      </trkpt>
      <trkpt lat="45.83186" lon="4.82249">
        <ele>320.4</ele>
        <time>2014-05-24T09:33:30Z</time>
      </trkpt>
      <trkpt lat="45.83186" lon="4.82248">
        <ele>320.4</ele>
        <time>2014-05-24T09:33:31Z</time>
      </trkpt>
      <trkpt lat="45.83184" lon="4.82247">
        <ele>320.8</ele>
        <time>2014-05-24T09:33:36Z</time>
      </trkpt>
      <trkpt lat="45.83183" lon="4.82246">
        <ele>320.8</ele>
        <time>2014-05-24T09:33:37Z</time>
      </trkpt>
      <trkpt lat="45.8318" lon="4.82245">
        <ele>321</ele>
        <time>2014-05-24T09:33:41Z</time>
      </trkpt>
      <trkpt lat="45.83178" lon="4.82247">
        <ele>321</ele>
        <time>2014-05-24T09:33:43Z</time>
      </trkpt>
      <trkpt lat="45.83176" lon="4.82247">
        <ele>321.4</ele>
        <time>2014-05-24T09:33:46Z</time>
      </trkpt>
      <trkpt lat="45.83172" lon="4.82252">
        <ele>322.6</ele>
        <time>2014-05-24T09:33:51Z</time>
      </trkpt>
      <trkpt lat="45.83169" lon="4.82253">
        <ele>323.6</ele>
        <time>2014-05-24T09:33:55Z</time>
      </trkpt>
      <trkpt lat="45.83169" lon="4.82257">
        <ele>324.8</ele>
        <time>2014-05-24T09:33:59Z</time>
      </trkpt>
      <trkpt lat="45.83164" lon="4.82262">
        <ele>326.8</ele>
        <time>2014-05-24T09:34:07Z</time>
      </trkpt>
      <trkpt lat="45.83159" lon="4.82267">
        <ele>328.2</ele>
        <time>2014-05-24T09:34:12Z</time>
      </trkpt>
      <trkpt lat="45.83155" lon="4.82268">
        <ele>328.8</ele>
        <time>2014-05-24T09:34:15Z</time>
      </trkpt>
      <trkpt lat="45.83151" lon="4.82269">
        <ele>329.6</ele>
        <time>2014-05-24T09:34:19Z</time>
      </trkpt>
      <trkpt lat="45.83146" lon="4.82269">
        <ele>330.8</ele>
        <time>2014-05-24T09:34:25Z</time>
      </trkpt>
      <trkpt lat="45.83143" lon="4.8227">
        <ele>331.8</ele>
        <time>2014-05-24T09:34:28Z</time>
      </trkpt>
      <trkpt lat="45.83142" lon="4.82268">
        <ele>332.4</ele>
        <time>2014-05-24T09:34:30Z</time>
      </trkpt>
      <trkpt lat="45.8314" lon="4.82265">
        <ele>333.6</ele>
        <time>2014-05-24T09:34:34Z</time>
      </trkpt>
      <trkpt lat="45.83138" lon="4.82266">
        <ele>335.2</ele>
        <time>2014-05-24T09:34:39Z</time>
      </trkpt>
      <trkpt lat="45.83139" lon="4.8227">
        <ele>338.6</ele>
        <time>2014-05-24T09:34:48Z</time>
      </trkpt>
      <trkpt lat="45.83139" lon="4.82276">
        <ele>340.2</ele>
        <time>2014-05-24T09:34:52Z</time>
      </trkpt>
      <trkpt lat="45.83139" lon="4.82279">
        <ele>341</ele>
        <time>2014-05-24T09:34:54Z</time>
      </trkpt>
      <trkpt lat="45.83141" lon="4.82283">
        <ele>342</ele>
        <time>2014-05-24T09:34:56Z</time>
      </trkpt>
      <trkpt lat="45.83143" lon="4.82285">
        <ele>343</ele>
        <time>2014-05-24T09:34:58Z</time>
      </trkpt>
      <trkpt lat="45.83144" lon="4.8229">
        <ele>345.2</ele>
        <time>2014-05-24T09:35:02Z</time>
      </trkpt>
      <trkpt lat="45.83145" lon="4.82292">
        <ele>345.8</ele>
        <time>2014-05-24T09:35:03Z</time>
      </trkpt>
      <trkpt lat="45.83145" lon="4.82295">
        <ele>349</ele>
        <time>2014-05-24T09:35:09Z</time>
      </trkpt>
      <trkpt lat="45.83142" lon="4.82301">
        <ele>351.8</ele>
        <time>2014-05-24T09:35:15Z</time>
      </trkpt>
      <trkpt lat="45.83145" lon="4.82309">
        <ele>354.4</ele>
        <time>2014-05-24T09:35:22Z</time>
      </trkpt>
      <trkpt lat="45.83143" lon="4.82316">
        <ele>355.2</ele>
        <time>2014-05-24T09:35:27Z</time>
      </trkpt>
      <trkpt lat="45.83142" lon="4.82319">
        <ele>355.4</ele>
        <time>2014-05-24T09:35:29Z</time>
      </trkpt>
      <trkpt lat="45.83142" lon="4.82323">
        <ele>355.6</ele>
        <time>2014-05-24T09:35:32Z</time>
      </trkpt>
      <trkpt lat="45.83142" lon="4.82328">
        <ele>355.6</ele>
        <time>2014-05-24T09:35:35Z</time>
      </trkpt>
      <trkpt lat="45.83144" lon="4.82336">
        <ele>356</ele>
        <time>2014-05-24T09:35:40Z</time>
      </trkpt>
      <trkpt lat="45.83145" lon="4.82338">
        <ele>356</ele>
        <time>2014-05-24T09:35:41Z</time>
      </trkpt>
      <trkpt lat="45.83144" lon="4.82341">
        <ele>356</ele>
        <time>2014-05-24T09:35:43Z</time>
      </trkpt>
      <trkpt lat="45.83142" lon="4.82344">
        <ele>355.8</ele>
        <time>2014-05-24T09:35:45Z</time>
      </trkpt>
      <trkpt lat="45.83141" lon="4.82346">
        <ele>355.8</ele>
        <time>2014-05-24T09:35:46Z</time>
      </trkpt>
      <trkpt lat="45.83141" lon="4.82349">
        <ele>355.8</ele>
        <time>2014-05-24T09:35:48Z</time>
      </trkpt>
      <trkpt lat="45.83142" lon="4.82355">
        <ele>355.8</ele>
        <time>2014-05-24T09:35:51Z</time>
      </trkpt>
      <trkpt lat="45.8314" lon="4.82362">
        <ele>355.4</ele>
        <time>2014-05-24T09:35:55Z</time>
      </trkpt>
      <trkpt lat="45.83139" lon="4.82363">
        <ele>355.4</ele>
        <time>2014-05-24T09:35:56Z</time>
      </trkpt>
      <trkpt lat="45.83138" lon="4.82365">
        <ele>355.4</ele>
        <time>2014-05-24T09:35:57Z</time>
      </trkpt>
      <trkpt lat="45.83136" lon="4.82369">
        <ele>355.2</ele>
        <time>2014-05-24T09:35:59Z</time>
      </trkpt>
      <trkpt lat="45.83136" lon="4.82374">
        <ele>355</ele>
        <time>2014-05-24T09:36:01Z</time>
      </trkpt>
      <trkpt lat="45.83138" lon="4.82385">
        <ele>354.8</ele>
        <time>2014-05-24T09:36:07Z</time>
      </trkpt>
      <trkpt lat="45.83138" lon="4.8239">
        <ele>354.6</ele>
        <time>2014-05-24T09:36:09Z</time>
      </trkpt>
      <trkpt lat="45.83138" lon="4.82394">
        <ele>354.6</ele>
        <time>2014-05-24T09:36:12Z</time>
      </trkpt>
      <trkpt lat="45.83138" lon="4.82395">
        <ele>354.6</ele>
        <time>2014-05-24T09:36:13Z</time>
      </trkpt>
      <trkpt lat="45.83138" lon="4.82398">
        <ele>354.4</ele>
        <time>2014-05-24T09:36:15Z</time>
      </trkpt>
      <trkpt lat="45.83139" lon="4.82406">
        <ele>354.4</ele>
        <time>2014-05-24T09:36:18Z</time>
      </trkpt>
      <trkpt lat="45.8314" lon="4.82416">
        <ele>354.2</ele>
        <time>2014-05-24T09:36:23Z</time>
      </trkpt>
      <trkpt lat="45.83141" lon="4.82419">
        <ele>354.2</ele>
        <time>2014-05-24T09:36:24Z</time>
      </trkpt>
      <trkpt lat="45.83143" lon="4.82427">
        <ele>354.4</ele>
        <time>2014-05-24T09:36:28Z</time>
      </trkpt>
      <trkpt lat="45.83143" lon="4.82435">
        <ele>354.4</ele>
        <time>2014-05-24T09:36:32Z</time>
      </trkpt>
      <trkpt lat="45.83143" lon="4.82442">
        <ele>354.4</ele>
        <time>2014-05-24T09:36:35Z</time>
      </trkpt>
      <trkpt lat="45.83144" lon="4.82444">
        <ele>354.6</ele>
        <time>2014-05-24T09:36:36Z</time>
      </trkpt>
      <trkpt lat="45.83143" lon="4.82449">
        <ele>354.6</ele>
        <time>2014-05-24T09:36:38Z</time>
      </trkpt>
      <trkpt lat="45.83142" lon="4.82461">
        <ele>354.4</ele>
        <time>2014-05-24T09:36:44Z</time>
      </trkpt>
      <trkpt lat="45.83141" lon="4.82467">
        <ele>354.2</ele>
        <time>2014-05-24T09:36:47Z</time>
      </trkpt>
      <trkpt lat="45.83141" lon="4.82475">
        <ele>354</ele>
        <time>2014-05-24T09:36:51Z</time>
      </trkpt>
      <trkpt lat="45.83144" lon="4.82482">
        <ele>354</ele>
        <time>2014-05-24T09:36:54Z</time>
      </trkpt>
      <trkpt lat="45.83145" lon="4.82488">
        <ele>354</ele>
        <time>2014-05-24T09:36:57Z</time>
      </trkpt>
      <trkpt lat="45.83146" lon="4.82494">
        <ele>354</ele>
        <time>2014-05-24T09:37:00Z</time>
      </trkpt>
      <trkpt lat="45.83148" lon="4.825">
        <ele>354</ele>
        <time>2014-05-24T09:37:03Z</time>
      </trkpt>
      <trkpt lat="45.83143" lon="4.82511">
        <ele>354</ele>
        <time>2014-05-24T09:37:08Z</time>
      </trkpt>
      <trkpt lat="45.83141" lon="4.82516">
        <ele>353.8</ele>
        <time>2014-05-24T09:37:11Z</time>
      </trkpt>
      <trkpt lat="45.83139" lon="4.82518">
        <ele>353.8</ele>
        <time>2014-05-24T09:37:12Z</time>
      </trkpt>
      <trkpt lat="45.83137" lon="4.8252">
        <ele>353.8</ele>
        <time>2014-05-24T09:37:13Z</time>
      </trkpt>
      <trkpt lat="45.83137" lon="4.82533">
        <ele>353.6</ele>
        <time>2014-05-24T09:37:19Z</time>
      </trkpt>
      <trkpt lat="45.83136" lon="4.82534">
        <ele>353.6</ele>
        <time>2014-05-24T09:37:20Z</time>
      </trkpt>
      <trkpt lat="45.83135" lon="4.82542">
        <ele>353.6</ele>
        <time>2014-05-24T09:37:24Z</time>
      </trkpt>
      <trkpt lat="45.83132" lon="4.82547">
        <ele>353.4</ele>
        <time>2014-05-24T09:37:27Z</time>
      </trkpt>
      <trkpt lat="45.8313" lon="4.82554">
        <ele>353.2</ele>
        <time>2014-05-24T09:37:32Z</time>
      </trkpt>
      <trkpt lat="45.83126" lon="4.8256">
        <ele>353</ele>
        <time>2014-05-24T09:37:35Z</time>
      </trkpt>
      <trkpt lat="45.83125" lon="4.82561">
        <ele>353</ele>
        <time>2014-05-24T09:37:36Z</time>
      </trkpt>
      <trkpt lat="45.83124" lon="4.82563">
        <ele>352.8</ele>
        <time>2014-05-24T09:37:37Z</time>
      </trkpt>
      <trkpt lat="45.83124" lon="4.82576">
        <ele>352.6</ele>
        <time>2014-05-24T09:37:43Z</time>
      </trkpt>
      <trkpt lat="45.83124" lon="4.82578">
        <ele>352.6</ele>
        <time>2014-05-24T09:37:44Z</time>
      </trkpt>
      <trkpt lat="45.8312" lon="4.82587">
        <ele>352.4</ele>
        <time>2014-05-24T09:37:49Z</time>
      </trkpt>
      <trkpt lat="45.83118" lon="4.82589">
        <ele>352.2</ele>
        <time>2014-05-24T09:37:51Z</time>
      </trkpt>
      <trkpt lat="45.83118" lon="4.82594">
        <ele>352.4</ele>
        <time>2014-05-24T09:37:54Z</time>
      </trkpt>
      <trkpt lat="45.83119" lon="4.82597">
        <ele>352.2</ele>
        <time>2014-05-24T09:37:56Z</time>
      </trkpt>
      <trkpt lat="45.83116" lon="4.82603">
        <ele>352.2</ele>
        <time>2014-05-24T09:37:59Z</time>
      </trkpt>
      <trkpt lat="45.83113" lon="4.82606">
        <ele>352.2</ele>
        <time>2014-05-24T09:38:01Z</time>
      </trkpt>
      <trkpt lat="45.83113" lon="4.82608">
        <ele>352</ele>
        <time>2014-05-24T09:38:02Z</time>
      </trkpt>
      <trkpt lat="45.83109" lon="4.82615">
        <ele>352</ele>
        <time>2014-05-24T09:38:06Z</time>
      </trkpt>
      <trkpt lat="45.83104" lon="4.82627">
        <ele>352</ele>
        <time>2014-05-24T09:38:14Z</time>
      </trkpt>
      <trkpt lat="45.83102" lon="4.82631">
        <ele>352.2</ele>
        <time>2014-05-24T09:38:16Z</time>
      </trkpt>
      <trkpt lat="45.831" lon="4.82634">
        <ele>352.6</ele>
        <time>2014-05-24T09:38:19Z</time>
      </trkpt>
      <trkpt lat="45.83096" lon="4.82638">
        <ele>352.8</ele>
        <time>2014-05-24T09:38:22Z</time>
      </trkpt>
      <trkpt lat="45.83094" lon="4.82643">
        <ele>353.2</ele>
        <time>2014-05-24T09:38:25Z</time>
      </trkpt>
      <trkpt lat="45.83092" lon="4.82651">
        <ele>353.6</ele>
        <time>2014-05-24T09:38:30Z</time>
      </trkpt>
      <trkpt lat="45.8309" lon="4.82652">
        <ele>353.6</ele>
        <time>2014-05-24T09:38:31Z</time>
      </trkpt>
      <trkpt lat="45.83086" lon="4.82659">
        <ele>353.4</ele>
        <time>2014-05-24T09:38:37Z</time>
      </trkpt>
      <trkpt lat="45.8308" lon="4.82666">
        <ele>353.4</ele>
        <time>2014-05-24T09:38:41Z</time>
      </trkpt>
      <trkpt lat="45.83077" lon="4.82667">
        <ele>353.2</ele>
        <time>2014-05-24T09:38:42Z</time>
      </trkpt>
      <trkpt lat="45.83075" lon="4.82668">
        <ele>353.2</ele>
        <time>2014-05-24T09:38:43Z</time>
      </trkpt>
      <trkpt lat="45.83065" lon="4.82677">
        <ele>352.6</ele>
        <time>2014-05-24T09:38:50Z</time>
      </trkpt>
      <trkpt lat="45.83063" lon="4.82682">
        <ele>352.4</ele>
        <time>2014-05-24T09:38:53Z</time>
      </trkpt>
      <trkpt lat="45.83061" lon="4.82685">
        <ele>352.4</ele>
        <time>2014-05-24T09:38:54Z</time>
      </trkpt>
      <trkpt lat="45.83059" lon="4.82687">
        <ele>352.2</ele>
        <time>2014-05-24T09:38:56Z</time>
      </trkpt>
      <trkpt lat="45.83053" lon="4.82694">
        <ele>351.8</ele>
        <time>2014-05-24T09:39:00Z</time>
      </trkpt>
      <trkpt lat="45.83051" lon="4.82695">
        <ele>351.6</ele>
        <time>2014-05-24T09:39:02Z</time>
      </trkpt>
      <trkpt lat="45.83048" lon="4.82702">
        <ele>351</ele>
        <time>2014-05-24T09:39:07Z</time>
      </trkpt>
      <trkpt lat="45.83047" lon="4.82704">
        <ele>350.8</ele>
        <time>2014-05-24T09:39:08Z</time>
      </trkpt>
      <trkpt lat="45.83046" lon="4.82709">
        <ele>350.4</ele>
        <time>2014-05-24T09:39:11Z</time>
      </trkpt>
      <trkpt lat="45.83043" lon="4.82714">
        <ele>350.2</ele>
        <time>2014-05-24T09:39:14Z</time>
      </trkpt>
      <trkpt lat="45.83043" lon="4.8272">
        <ele>349.8</ele>
        <time>2014-05-24T09:39:18Z</time>
      </trkpt>
      <trkpt lat="45.83042" lon="4.82721">
        <ele>349.8</ele>
        <time>2014-05-24T09:39:20Z</time>
      </trkpt>
      <trkpt lat="45.83038" lon="4.82724">
        <ele>349.4</ele>
        <time>2014-05-24T09:39:23Z</time>
      </trkpt>
      <trkpt lat="45.83037" lon="4.82726">
        <ele>349.2</ele>
        <time>2014-05-24T09:39:24Z</time>
      </trkpt>
      <trkpt lat="45.83034" lon="4.82732">
        <ele>349</ele>
        <time>2014-05-24T09:39:27Z</time>
      </trkpt>
      <trkpt lat="45.83034" lon="4.82734">
        <ele>349</ele>
        <time>2014-05-24T09:39:28Z</time>
      </trkpt>
      <trkpt lat="45.83031" lon="4.8274">
        <ele>348.8</ele>
        <time>2014-05-24T09:39:32Z</time>
      </trkpt>
      <trkpt lat="45.83026" lon="4.82745">
        <ele>348.6</ele>
        <time>2014-05-24T09:39:35Z</time>
      </trkpt>
      <trkpt lat="45.83022" lon="4.8275">
        <ele>348.4</ele>
        <time>2014-05-24T09:39:37Z</time>
      </trkpt>
      <trkpt lat="45.83015" lon="4.82755">
        <ele>348.2</ele>
        <time>2014-05-24T09:39:42Z</time>
      </trkpt>
      <trkpt lat="45.83012" lon="4.82757">
        <ele>348</ele>
        <time>2014-05-24T09:39:44Z</time>
      </trkpt>
      <trkpt lat="45.83009" lon="4.8276">
        <ele>347.8</ele>
        <time>2014-05-24T09:39:46Z</time>
      </trkpt>
      <trkpt lat="45.83008" lon="4.82761">
        <ele>347.8</ele>
        <time>2014-05-24T09:39:47Z</time>
      </trkpt>
      <trkpt lat="45.83005" lon="4.82766">
        <ele>347.6</ele>
        <time>2014-05-24T09:39:51Z</time>
      </trkpt>
      <trkpt lat="45.83" lon="4.8277">
        <ele>347.6</ele>
        <time>2014-05-24T09:39:54Z</time>
      </trkpt>
      <trkpt lat="45.82995" lon="4.82779">
        <ele>348</ele>
        <time>2014-05-24T09:39:59Z</time>
      </trkpt>
      <trkpt lat="45.82995" lon="4.82782">
        <ele>348</ele>
        <time>2014-05-24T09:40:00Z</time>
      </trkpt>
      <trkpt lat="45.82997" lon="4.82791">
        <ele>349</ele>
        <time>2014-05-24T09:40:06Z</time>
      </trkpt>
      <trkpt lat="45.82996" lon="4.82792">
        <ele>348.8</ele>
        <time>2014-05-24T09:40:07Z</time>
      </trkpt>
      <trkpt lat="45.82993" lon="4.82793">
        <ele>349</ele>
        <time>2014-05-24T09:40:09Z</time>
      </trkpt>
      <trkpt lat="45.82989" lon="4.82796">
        <ele>349.2</ele>
        <time>2014-05-24T09:40:12Z</time>
      </trkpt>
      <trkpt lat="45.82988" lon="4.82797">
        <ele>349</ele>
        <time>2014-05-24T09:40:13Z</time>
      </trkpt>
      <trkpt lat="45.82987" lon="4.82799">
        <ele>349</ele>
        <time>2014-05-24T09:40:14Z</time>
      </trkpt>
      <trkpt lat="45.82983" lon="4.82803">
        <ele>349</ele>
        <time>2014-05-24T09:40:17Z</time>
      </trkpt>
      <trkpt lat="45.82976" lon="4.82813">
        <ele>348.8</ele>
        <time>2014-05-24T09:40:23Z</time>
      </trkpt>
      <trkpt lat="45.82972" lon="4.82817">
        <ele>348.8</ele>
        <time>2014-05-24T09:40:26Z</time>
      </trkpt>
      <trkpt lat="45.82971" lon="4.82819">
        <ele>348.8</ele>
        <time>2014-05-24T09:40:28Z</time>
      </trkpt>
      <trkpt lat="45.8297" lon="4.8282">
        <ele>348.8</ele>
        <time>2014-05-24T09:40:29Z</time>
      </trkpt>
      <trkpt lat="45.82969" lon="4.82821">
        <ele>348.8</ele>
        <time>2014-05-24T09:40:30Z</time>
      </trkpt>
      <trkpt lat="45.82965" lon="4.82824">
        <ele>348.6</ele>
        <time>2014-05-24T09:40:33Z</time>
      </trkpt>
      <trkpt lat="45.82961" lon="4.82834">
        <ele>348.6</ele>
        <time>2014-05-24T09:40:39Z</time>
      </trkpt>
      <trkpt lat="45.8296" lon="4.82836">
        <ele>348.6</ele>
        <time>2014-05-24T09:40:40Z</time>
      </trkpt>
      <trkpt lat="45.82956" lon="4.82844">
        <ele>348.4</ele>
        <time>2014-05-24T09:40:45Z</time>
      </trkpt>
      <trkpt lat="45.82955" lon="4.82846">
        <ele>348.2</ele>
        <time>2014-05-24T09:40:46Z</time>
      </trkpt>
      <trkpt lat="45.82953" lon="4.82858">
        <ele>348</ele>
        <time>2014-05-24T09:40:52Z</time>
      </trkpt>
      <trkpt lat="45.82953" lon="4.82859">
        <ele>348</ele>
        <time>2014-05-24T09:40:53Z</time>
      </trkpt>
      <trkpt lat="45.82949" lon="4.82864">
        <ele>347.8</ele>
        <time>2014-05-24T09:40:55Z</time>
      </trkpt>
      <trkpt lat="45.82946" lon="4.82869">
        <ele>347.6</ele>
        <time>2014-05-24T09:40:58Z</time>
      </trkpt>
      <trkpt lat="45.82943" lon="4.82881">
        <ele>347.2</ele>
        <time>2014-05-24T09:41:03Z</time>
      </trkpt>
      <trkpt lat="45.82941" lon="4.82897">
        <ele>346.6</ele>
        <time>2014-05-24T09:41:09Z</time>
      </trkpt>
      <trkpt lat="45.82939" lon="4.82908">
        <ele>346</ele>
        <time>2014-05-24T09:41:14Z</time>
      </trkpt>
      <trkpt lat="45.82939" lon="4.82911">
        <ele>345.8</ele>
        <time>2014-05-24T09:41:15Z</time>
      </trkpt>
      <trkpt lat="45.82938" lon="4.82924">
        <ele>345.2</ele>
        <time>2014-05-24T09:41:21Z</time>
      </trkpt>
      <trkpt lat="45.82937" lon="4.82927">
        <ele>345</ele>
        <time>2014-05-24T09:41:22Z</time>
      </trkpt>
      <trkpt lat="45.82936" lon="4.82934">
        <ele>344.4</ele>
        <time>2014-05-24T09:41:26Z</time>
      </trkpt>
      <trkpt lat="45.82933" lon="4.82944">
        <ele>343.8</ele>
        <time>2014-05-24T09:41:31Z</time>
      </trkpt>
      <trkpt lat="45.82933" lon="4.82946">
        <ele>343.6</ele>
        <time>2014-05-24T09:41:32Z</time>
      </trkpt>
      <trkpt lat="45.8293" lon="4.82955">
        <ele>343</ele>
        <time>2014-05-24T09:41:36Z</time>
      </trkpt>
      <trkpt lat="45.82929" lon="4.82959">
        <ele>342.8</ele>
        <time>2014-05-24T09:41:38Z</time>
      </trkpt>
      <trkpt lat="45.82928" lon="4.82965">
        <ele>342.4</ele>
        <time>2014-05-24T09:41:41Z</time>
      </trkpt>
      <trkpt lat="45.82928" lon="4.82972">
        <ele>342</ele>
        <time>2014-05-24T09:41:44Z</time>
      </trkpt>
      <trkpt lat="45.82929" lon="4.82976">
        <ele>341.6</ele>
        <time>2014-05-24T09:41:46Z</time>
      </trkpt>
      <trkpt lat="45.8293" lon="4.82979">
        <ele>341.6</ele>
        <time>2014-05-24T09:41:47Z</time>
      </trkpt>
      <trkpt lat="45.82932" lon="4.82984">
        <ele>341.4</ele>
        <time>2014-05-24T09:41:49Z</time>
      </trkpt>
      <trkpt lat="45.82932" lon="4.8299">
        <ele>341</ele>
        <time>2014-05-24T09:41:52Z</time>
      </trkpt>
      <trkpt lat="45.82935" lon="4.83">
        <ele>340.4</ele>
        <time>2014-05-24T09:41:57Z</time>
      </trkpt>
      <trkpt lat="45.8294" lon="4.83003">
        <ele>339.8</ele>
        <time>2014-05-24T09:42:02Z</time>
      </trkpt>
      <trkpt lat="45.82941" lon="4.83003">
        <ele>339.8</ele>
        <time>2014-05-24T09:42:03Z</time>
      </trkpt>
      <trkpt lat="45.82951" lon="4.83006">
        <ele>339.2</ele>
        <time>2014-05-24T09:42:09Z</time>
      </trkpt>
      <trkpt lat="45.82958" lon="4.83006">
        <ele>338.6</ele>
        <time>2014-05-24T09:42:14Z</time>
      </trkpt>
      <trkpt lat="45.82959" lon="4.83006">
        <ele>338.4</ele>
        <time>2014-05-24T09:42:15Z</time>
      </trkpt>
      <trkpt lat="45.8296" lon="4.83005">
        <ele>338.2</ele>
        <time>2014-05-24T09:42:16Z</time>
      </trkpt>
      <trkpt lat="45.82963" lon="4.83006">
        <ele>338</ele>
        <time>2014-05-24T09:42:18Z</time>
      </trkpt>
      <trkpt lat="45.82968" lon="4.83011">
        <ele>337.6</ele>
        <time>2014-05-24T09:42:21Z</time>
      </trkpt>
      <trkpt lat="45.82973" lon="4.83013">
        <ele>337.2</ele>
        <time>2014-05-24T09:42:24Z</time>
      </trkpt>
      <trkpt lat="45.82976" lon="4.83016">
        <ele>336.8</ele>
        <time>2014-05-24T09:42:26Z</time>
      </trkpt>
      <trkpt lat="45.82983" lon="4.83022">
        <ele>336.2</ele>
        <time>2014-05-24T09:42:30Z</time>
      </trkpt>
      <trkpt lat="45.82985" lon="4.83026">
        <ele>336</ele>
        <time>2014-05-24T09:42:32Z</time>
      </trkpt>
      <trkpt lat="45.82987" lon="4.83033">
        <ele>335.6</ele>
        <time>2014-05-24T09:42:35Z</time>
      </trkpt>
      <trkpt lat="45.82988" lon="4.83035">
        <ele>335.4</ele>
        <time>2014-05-24T09:42:36Z</time>
      </trkpt>
      <trkpt lat="45.82995" lon="4.83046">
        <ele>334.4</ele>
        <time>2014-05-24T09:42:42Z</time>
      </trkpt>
      <trkpt lat="45.82999" lon="4.83055">
        <ele>333.6</ele>
        <time>2014-05-24T09:42:47Z</time>
      </trkpt>
      <trkpt lat="45.83" lon="4.83057">
        <ele>333.4</ele>
        <time>2014-05-24T09:42:48Z</time>
      </trkpt>
      <trkpt lat="45.83008" lon="4.83063">
        <ele>332.6</ele>
        <time>2014-05-24T09:42:54Z</time>
      </trkpt>
      <trkpt lat="45.83008" lon="4.83064">
        <ele>332.4</ele>
        <time>2014-05-24T09:42:55Z</time>
      </trkpt>
      <trkpt lat="45.83009" lon="4.83065">
        <ele>332.2</ele>
        <time>2014-05-24T09:42:57Z</time>
      </trkpt>
      <trkpt lat="45.83009" lon="4.83067">
        <ele>332</ele>
        <time>2014-05-24T09:42:58Z</time>
      </trkpt>
      <trkpt lat="45.8301" lon="4.83071">
        <ele>331.4</ele>
        <time>2014-05-24T09:43:02Z</time>
      </trkpt>
      <trkpt lat="45.83011" lon="4.83074">
        <ele>331.2</ele>
        <time>2014-05-24T09:43:04Z</time>
      </trkpt>
      <trkpt lat="45.83011" lon="4.83079">
        <ele>330.6</ele>
        <time>2014-05-24T09:43:07Z</time>
      </trkpt>
      <trkpt lat="45.83013" lon="4.83088">
        <ele>329.6</ele>
        <time>2014-05-24T09:43:12Z</time>
      </trkpt>
      <trkpt lat="45.83014" lon="4.8309">
        <ele>329.6</ele>
        <time>2014-05-24T09:43:13Z</time>
      </trkpt>
      <trkpt lat="45.83009" lon="4.83096">
        <ele>328.6</ele>
        <time>2014-05-24T09:43:18Z</time>
      </trkpt>
      <trkpt lat="45.83003" lon="4.831">
        <ele>328</ele>
        <time>2014-05-24T09:43:21Z</time>
      </trkpt>
      <trkpt lat="45.82999" lon="4.83102">
        <ele>327.6</ele>
        <time>2014-05-24T09:43:23Z</time>
      </trkpt>
      <trkpt lat="45.82992" lon="4.83107">
        <ele>326.8</ele>
        <time>2014-05-24T09:43:27Z</time>
      </trkpt>
      <trkpt lat="45.82989" lon="4.83107">
        <ele>326.4</ele>
        <time>2014-05-24T09:43:29Z</time>
      </trkpt>
      <trkpt lat="45.82984" lon="4.83111">
        <ele>325.6</ele>
        <time>2014-05-24T09:43:33Z</time>
      </trkpt>
      <trkpt lat="45.82983" lon="4.83111">
        <ele>325.4</ele>
        <time>2014-05-24T09:43:34Z</time>
      </trkpt>
      <trkpt lat="45.82974" lon="4.83112">
        <ele>324.2</ele>
        <time>2014-05-24T09:43:40Z</time>
      </trkpt>
      <trkpt lat="45.82973" lon="4.83112">
        <ele>323.8</ele>
        <time>2014-05-24T09:43:41Z</time>
      </trkpt>
      <trkpt lat="45.82969" lon="4.83113">
        <ele>323</ele>
        <time>2014-05-24T09:43:45Z</time>
      </trkpt>
      <trkpt lat="45.82968" lon="4.83113">
        <ele>322.6</ele>
        <time>2014-05-24T09:43:46Z</time>
      </trkpt>
      <trkpt lat="45.8296" lon="4.83116">
        <ele>321.4</ele>
        <time>2014-05-24T09:43:51Z</time>
      </trkpt>
      <trkpt lat="45.82958" lon="4.83117">
        <ele>321.2</ele>
        <time>2014-05-24T09:43:52Z</time>
      </trkpt>
      <trkpt lat="45.82955" lon="4.83118">
        <ele>320.6</ele>
        <time>2014-05-24T09:43:55Z</time>
      </trkpt>
      <trkpt lat="45.82953" lon="4.83118">
        <ele>320.4</ele>
        <time>2014-05-24T09:43:56Z</time>
      </trkpt>
      <trkpt lat="45.8295" lon="4.83117">
        <ele>320</ele>
        <time>2014-05-24T09:43:58Z</time>
      </trkpt>
      <trkpt lat="45.82945" lon="4.83118">
        <ele>319.4</ele>
        <time>2014-05-24T09:44:02Z</time>
      </trkpt>
      <trkpt lat="45.82937" lon="4.83119">
        <ele>318.8</ele>
        <time>2014-05-24T09:44:07Z</time>
      </trkpt>
      <trkpt lat="45.82935" lon="4.8312">
        <ele>318.6</ele>
        <time>2014-05-24T09:44:08Z</time>
      </trkpt>
      <trkpt lat="45.82931" lon="4.8312">
        <ele>318.4</ele>
        <time>2014-05-24T09:44:10Z</time>
      </trkpt>
      <trkpt lat="45.82925" lon="4.8312">
        <ele>318</ele>
        <time>2014-05-24T09:44:15Z</time>
      </trkpt>
      <trkpt lat="45.82918" lon="4.83121">
        <ele>317.6</ele>
        <time>2014-05-24T09:44:20Z</time>
      </trkpt>
      <trkpt lat="45.82914" lon="4.8312">
        <ele>317.2</ele>
        <time>2014-05-24T09:44:23Z</time>
      </trkpt>
      <trkpt lat="45.8291" lon="4.8312">
        <ele>316.8</ele>
        <time>2014-05-24T09:44:26Z</time>
      </trkpt>
      <trkpt lat="45.82904" lon="4.8312">
        <ele>316.2</ele>
        <time>2014-05-24T09:44:30Z</time>
      </trkpt>
      <trkpt lat="45.82899" lon="4.8312">
        <ele>315.8</ele>
        <time>2014-05-24T09:44:34Z</time>
      </trkpt>
      <trkpt lat="45.82897" lon="4.83122">
        <ele>315.6</ele>
        <time>2014-05-24T09:44:35Z</time>
      </trkpt>
      <trkpt lat="45.82894" lon="4.83122">
        <ele>315.4</ele>
        <time>2014-05-24T09:44:37Z</time>
      </trkpt>
      <trkpt lat="45.8289" lon="4.83121">
        <ele>315.2</ele>
        <time>2014-05-24T09:44:39Z</time>
      </trkpt>
      <trkpt lat="45.82881" lon="4.8312">
        <ele>314.6</ele>
        <time>2014-05-24T09:44:45Z</time>
      </trkpt>
      <trkpt lat="45.8288" lon="4.8312">
        <ele>314.6</ele>
        <time>2014-05-24T09:44:46Z</time>
      </trkpt>
      <trkpt lat="45.82874" lon="4.8312">
        <ele>314.2</ele>
        <time>2014-05-24T09:44:50Z</time>
      </trkpt>
      <trkpt lat="45.82868" lon="4.8312">
        <ele>313.8</ele>
        <time>2014-05-24T09:44:54Z</time>
      </trkpt>
      <trkpt lat="45.82865" lon="4.83119">
        <ele>313.4</ele>
        <time>2014-05-24T09:44:56Z</time>
      </trkpt>
      <trkpt lat="45.82864" lon="4.83118">
        <ele>313.4</ele>
        <time>2014-05-24T09:44:57Z</time>
      </trkpt>
      <trkpt lat="45.8286" lon="4.83119">
        <ele>313.2</ele>
        <time>2014-05-24T09:44:59Z</time>
      </trkpt>
      <trkpt lat="45.82858" lon="4.83119">
        <ele>312.8</ele>
        <time>2014-05-24T09:45:01Z</time>
      </trkpt>
      <trkpt lat="45.82852" lon="4.83118">
        <ele>312.4</ele>
        <time>2014-05-24T09:45:05Z</time>
      </trkpt>
      <trkpt lat="45.82849" lon="4.83118">
        <ele>312</ele>
        <time>2014-05-24T09:45:07Z</time>
      </trkpt>
      <trkpt lat="45.82843" lon="4.83115">
        <ele>311.4</ele>
        <time>2014-05-24T09:45:12Z</time>
      </trkpt>
      <trkpt lat="45.82841" lon="4.83114">
        <ele>311.4</ele>
        <time>2014-05-24T09:45:13Z</time>
      </trkpt>
      <trkpt lat="45.82832" lon="4.83114">
        <ele>311</ele>
        <time>2014-05-24T09:45:18Z</time>
      </trkpt>
      <trkpt lat="45.82824" lon="4.8311">
        <ele>310.2</ele>
        <time>2014-05-24T09:45:24Z</time>
      </trkpt>
      <trkpt lat="45.82822" lon="4.8311">
        <ele>310.2</ele>
        <time>2014-05-24T09:45:25Z</time>
      </trkpt>
      <trkpt lat="45.82819" lon="4.8311">
        <ele>310</ele>
        <time>2014-05-24T09:45:27Z</time>
      </trkpt>
      <trkpt lat="45.82816" lon="4.8311">
        <ele>309.8</ele>
        <time>2014-05-24T09:45:30Z</time>
      </trkpt>
      <trkpt lat="45.82814" lon="4.83109">
        <ele>309.6</ele>
        <time>2014-05-24T09:45:32Z</time>
      </trkpt>
      <trkpt lat="45.8281" lon="4.83109">
        <ele>309.6</ele>
        <time>2014-05-24T09:45:35Z</time>
      </trkpt>
      <trkpt lat="45.82804" lon="4.83107">
        <ele>309.6</ele>
        <time>2014-05-24T09:45:38Z</time>
      </trkpt>
      <trkpt lat="45.828" lon="4.83107">
        <ele>309.6</ele>
        <time>2014-05-24T09:45:40Z</time>
      </trkpt>
      <trkpt lat="45.82793" lon="4.83108">
        <ele>309.4</ele>
        <time>2014-05-24T09:45:44Z</time>
      </trkpt>
      <trkpt lat="45.82786" lon="4.83111">
        <ele>309.4</ele>
        <time>2014-05-24T09:45:47Z</time>
      </trkpt>
      <trkpt lat="45.82783" lon="4.83112">
        <ele>309.2</ele>
        <time>2014-05-24T09:45:49Z</time>
      </trkpt>
      <trkpt lat="45.82778" lon="4.83113">
        <ele>309</ele>
        <time>2014-05-24T09:45:52Z</time>
      </trkpt>
      <trkpt lat="45.82772" lon="4.83113">
        <ele>309.2</ele>
        <time>2014-05-24T09:45:55Z</time>
      </trkpt>
      <trkpt lat="45.8277" lon="4.83113">
        <ele>309.2</ele>
        <time>2014-05-24T09:45:58Z</time>
      </trkpt>
      <trkpt lat="45.8277" lon="4.83114">
        <ele>309</ele>
        <time>2014-05-24T09:45:59Z</time>
      </trkpt>
      <trkpt lat="45.82768" lon="4.83116">
        <ele>309</ele>
        <time>2014-05-24T09:46:02Z</time>
      </trkpt>
      <trkpt lat="45.82767" lon="4.83121">
        <ele>308.8</ele>
        <time>2014-05-24T09:46:05Z</time>
      </trkpt>
      <trkpt lat="45.82766" lon="4.8313">
        <ele>308.4</ele>
        <time>2014-05-24T09:46:11Z</time>
      </trkpt>
      <trkpt lat="45.82765" lon="4.83135">
        <ele>308.2</ele>
        <time>2014-05-24T09:46:13Z</time>
      </trkpt>
      <trkpt lat="45.82764" lon="4.83141">
        <ele>308</ele>
        <time>2014-05-24T09:46:16Z</time>
      </trkpt>
      <trkpt lat="45.82765" lon="4.83157">
        <ele>307.4</ele>
        <time>2014-05-24T09:46:23Z</time>
      </trkpt>
      <trkpt lat="45.82768" lon="4.83165">
        <ele>307</ele>
        <time>2014-05-24T09:46:29Z</time>
      </trkpt>
      <trkpt lat="45.82767" lon="4.83165">
        <ele>306.8</ele>
        <time>2014-05-24T09:46:31Z</time>
      </trkpt>
      <trkpt lat="45.82767" lon="4.83164">
        <ele>306.6</ele>
        <time>2014-05-24T09:46:33Z</time>
      </trkpt>
      <trkpt lat="45.82768" lon="4.83164">
        <ele>306</ele>
        <time>2014-05-24T09:46:41Z</time>
      </trkpt>
      <trkpt lat="45.82767" lon="4.83161">
        <ele>304.8</ele>
        <time>2014-05-24T09:46:56Z</time>
      </trkpt>
      <trkpt lat="45.82766" lon="4.83162">
        <ele>304.6</ele>
        <time>2014-05-24T09:47:01Z</time>
      </trkpt>
      <trkpt lat="45.82766" lon="4.83164">
        <ele>304</ele>
        <time>2014-05-24T09:47:10Z</time>
      </trkpt>
      <trkpt lat="45.82768" lon="4.83161">
        <ele>301.6</ele>
        <time>2014-05-24T09:47:24Z</time>
      </trkpt>
      <trkpt lat="45.82776" lon="4.83166">
        <ele>301.4</ele>
        <time>2014-05-24T09:47:27Z</time>
      </trkpt>
      <trkpt lat="45.82779" lon="4.83169">
        <ele>301.2</ele>
        <time>2014-05-24T09:47:28Z</time>
      </trkpt>
      <trkpt lat="45.82795" lon="4.8319">
        <ele>300.8</ele>
        <time>2014-05-24T09:47:32Z</time>
      </trkpt>
    </trkseg>
  </trk>
</gpx>